CLASSIFICHE

Cercati tra tutti i partecipanti

CLASSIFICHE

OLIMPICO – Maschile

POSIZIONEPETTORALECOGNOMENOMECATEGORIANOME TEAMTEMPOORA ARRIVODISTACCO
1728DE PONTIMASSIMOELC.S.CARABINIERI01:53:4116:03:43.8000:00:00
2680STEGERTHOMASELPEWAG RACING TEAM01:55:1116:05:13.1500:01:30
32AZZANONICOLAELTHE HURRICANE S.S.D.01:56:2516:06:27.8500:02:44
4697LAZZARETTOMIRKOS1TRI.RN.MAROSTICA01:57:1316:07:15.8500:03:32
54PAGOTTOFEDERICOS1SILCA ULTRALITE01:58:3816:08:41.0000:04:58
612GATTITOMMASOS1POOL CANTU' 1999 A.S01:59:2916:09:31.9500:05:49
78VILLANOVASIMONES2PROPATRIA MILANO02:00:1316:10:15.6000:06:32
81SALINIGABRIELES470702:00:4716:10:50.0000:07:07
9702PEZZATIMICHELES1PIACENZATRIVITTORINO02:01:1116:11:13.7000:07:30
1010BARISONMARCOS1LIGER TEAM KEYLINE02:02:0816:12:11.0000:08:28
113INCARDONAFEDERICO GREGORIOS3NLF02:02:1716:12:19.3000:08:36
127MORELLATOALESSIOS4A302:03:0416:13:06.8000:09:23
131077KIRALYANDRASELESTERO02:03:4016:13:42.5500:09:59
1417BOTTURAORAZIOM2TRI TEAM BRIANZA02:04:3516:14:37.9000:10:55
1551ZANONILUCAS2PROPATRIA MILANO02:05:0016:15:02.8000:11:19
1622RAINOLTERANDREAS1POOL CANTU' 1999 A.S02:05:4516:15:47.8000:12:04
1711ZONTINIMATTIAS2RASCHIANI TRI PAVESE02:06:3116:16:33.7000:12:50
1837MUTTIEMANUELES2DOCTORBIKE TRIATHLON02:06:5716:16:59.8000:13:16
1924CESTAROFABIOM3ASI TRIATHLON NOALE02:07:0716:17:09.6000:13:26
2016PAVANIMARCOS1VERONA TRIATHLON KM02:07:2616:17:28.2000:13:45
2118GATTIMARCOS3OTRI 1 COMO02:07:3216:17:34.8500:13:51
2213FINAZZIGIUSEPPES470702:07:4116:17:43.7000:14:00
23110ATTALAANDREAS4FIRENZE TRI02:07:4616:17:48.5000:14:05
2468ALBINIACHILLEM2RHO TRIATHLON CLUB02:08:0916:18:11.2500:14:28
25713POLINELLIFRANCESCOS2CUSIOCUP02:08:1316:26:14.7500:14:32
2684TOMBOLATOSTEFANOS1RUN RAN RUN T02:08:3316:18:35.9000:14:53
2719BERTAZZOOMARS2A.S.D. RHODIGIUM TEA02:08:3616:18:38.7500:14:55
2855KAMALICHANDREAM1PROPATRIA MILANO02:08:4116:18:43.4000:15:00
2934CAVALLERETTIANGELOM4SPARTACUS TRILECCO02:08:5016:18:52.7000:15:09
3033BELLINZONAGABRIELES4FREEZONE02:09:0716:19:09.1000:15:26
3129ONGARONICOLAS3TEAM BIKE GUSSAGO AS02:09:1016:19:13.0500:15:30
3258SPERANDIOCHRISTIANS4TRI ALTO ADIGE02:09:2716:19:29.5000:15:46
3315BERARDINILUCAS4FERALPI TRIATHLON02:09:3516:19:37.5500:15:54
34685PAPAISRENEM1SWIM A-CLUB TRIATHLON02:09:3716:25:38.1500:15:56
3553BARACANIROBERTOM3EASTSIDE TRIATHLON02:09:3716:19:39.2500:15:56
36166BORTOLETTOMARCOJUCUS PADOVA UNIPD02:09:4316:19:45.6000:16:02
37129SCARPELLIIVANOM1FERALPI TRIATHLON02:10:1116:20:13.8000:16:30
38701RITARDOANDREAS1FERALPI TRIATHLON02:10:1516:28:17.0000:16:35
3920GOBBOSAMUELES2A302:10:2416:20:26.4000:16:43
40114LARGONIDANIELES2TRIBU'02:10:2416:20:27.0500:16:44
4136GARGATAGLIMASSIMILIANOM2ASD CNM TRIATHLON02:10:3116:20:33.6500:16:50
42120CERNICCHIALESSANDROS4TRI.RN.MAROSTICA02:10:3516:20:37.9000:16:55
4327MORUZZIMASSIMOM2MODENA TRIATHLON02:10:3816:20:41.0000:16:58
44966GAGNOLAURENCE PATRICKM347 ANNO DOMINI02:10:3916:30:56.7500:16:58
45744SICURAFEDERICOS3ZEROTRENTA TRIATHLON02:10:4016:10:43.0500:17:00
4638FERRARIMASSIMOM3FERALPI TRIATHLON02:10:4116:20:43.5000:17:00
4725SCHIAPPARELLIMARCOM1IRONBIELLA02:10:4216:20:44.5500:17:01
4862SINIANDREAM1FERALPI TRIATHLON02:11:0016:21:02.1500:17:19
4963CURRIDORIGIOVANNIS4NADIR BARI02:11:0216:21:04.4000:17:21
5035LAVELLIMASSIMOM1FREEZONE02:11:1116:21:13.8500:17:30
51102BERGOANDREAM1EROI DEL PIAVE02:11:1316:21:15.8000:17:32
52729GARGIULOLUCAS3PUROSANGUE ASD02:11:2016:29:21.3000:17:39
5372STELLASIMONES2CY LASER TRI SCHIO02:11:2016:21:22.3500:17:39
54105VECCHIATTIGIAN LUIGIM1A.S.D. RHODIGIUM TEA02:11:2016:21:22.4500:17:39
5565TORTELLAGIACOMOS4PESCHIERA TRI02:11:2316:21:25.4000:17:42
5670FELTREGIACOMOM1TRI ALTO ADIGE02:11:2916:21:31.7000:17:48
5740SIMIONATOSTEFANOM2ASI TRIATHLON NOALE02:11:3316:21:35.2500:17:52
5893BONALUMIALESSANDROM1EUROPA SSD02:11:4216:21:45.0000:18:02
5979CICCIARELLAGIUSEPPES3VERONA TRIATHLON KM02:11:4416:21:47.0000:18:04
6043GASPARINICHRISTIANS2TRAGUARDO VOLANTE02:11:4616:21:48.2000:18:05
6177BONETTIEMILIANOM1MODENA TRIATHLON02:11:4716:21:49.8500:18:06
6232FERRAROSIMONE TIZIANOS3FTM TEAM02:11:4916:21:51.3000:18:08
63103MOTTURAALBERTOS4ASD CNM TRIATHLON02:11:5116:21:53.4500:18:10
64178CASADIOLORENZOM2TRI ALTO ADIGE02:11:5616:23:58.6500:18:15
65691FRANCOFRANCESCOJUTRIATHLON 7C ASD02:12:0916:22:11.2500:18:28
66162VIGANO'ROBERTOS3NJOY TRI VA02:12:3516:22:38.0000:18:55
6756SMELLINIALESSIOS3PESCHIERA TRI02:12:4316:22:45.9000:19:03
6890ZAMBELLIPAOLOS4S.S.D. SCHIANTARELLI02:12:4516:22:47.7500:19:04
69806BARBIERIMATTEOS4SEA SUB MODENA02:12:5116:30:53.0000:19:11
70695DALBONICRISTIANJUCANOTTIERI SALO'02:12:5516:22:57.6500:19:14
7145AVIVALENTINOS1TRAGUARDO VOLANTE02:13:0016:23:02.5000:19:19
72188LOGOTETAMARCOM1IRONBIELLA02:13:0516:25:07.8000:19:24
7328MANGIAROTTIMARCOM1K3 CREMONA02:13:0516:23:07.9500:19:25
74192ORLANDICESAREM2TEAM BIKE GUSSAGO AS02:13:0716:25:09.5000:19:26
7548MAZZOLENIDAVIDEM1STEEL T - BG02:13:0716:23:09.6500:19:26
76696PEZZOTTILORENZOJUCANOTTIERI SALO'02:13:1216:23:14.6000:19:31
77681MARSILLIMASSIMILIANOS2TRIATLON TETUAN02:13:1416:29:15.4000:19:33
7831PIOVESANIGORM1SPORT 6402:13:1516:23:17.3500:19:34
79715MAZZOCCHIEDOARDOS2RASCHIANI TRI PAVESE02:13:1516:31:16.5000:19:34
80407MATTACHINICHRISTIANM1GRANBIKE TRIATHLON02:13:1816:27:19.2500:19:37
8121MARCHESINCRISTIANOM2DDS02:13:1816:23:20.5500:19:37
8260BELLEMOMICHELEM2A.S. DELFINO CHIOGGI02:13:2116:23:23.5500:19:40
8357FONTANADIEGOS1A302:13:3316:23:35.7000:19:52
84234FANTONEMARCO ERNESTOM3ASD CNM TRIATHLON02:13:4816:25:50.5000:20:07
85810BERTONCELLIALEXM1A.S.D. SESSANTALLORA02:13:5316:31:54.1500:20:12
86812CAMPASSINICOLA PIETROM1SAI FRECCE BIANCHE02:13:5416:31:55.4500:20:13
87190RONCHETTIALEXANDERS4SEA SUB MODENA02:14:0316:26:05.1000:20:22
8871GIOVAGNOLIGIANPAOLOM2CANDIA TRIATHLON02:14:0716:24:09.2500:20:26
89754BAGNOLIDAVIDES3PESCHIERA TRI02:14:2216:24:24.2500:20:41
90731FERRARIANDREAS3DERTHONA NUOTO SCSD02:14:2416:32:25.9000:20:44
9173SANDRINISIMONES3S.S.D. SCHIANTARELLI02:14:2716:24:29.9000:20:47
92100SOSSELLADAVIDES4CY LASER TRI SCHIO02:14:2916:24:31.1500:20:48
93756WARANEYOUSSEFS3ASD 3.4 FUN02:14:4116:32:42.8000:21:00
94692RUGGERONICOLO'JURUN RAN RUN T02:14:4616:30:47.8500:21:05
9591BARPTONIM3A302:14:4716:24:49.3000:21:06
9654GAVAZZIMARCOM1SAMVERGA TRI02:14:5216:24:54.3500:21:11
9749MARCIGAGLIAMATTIAM1PESCHIERA TRI02:14:5816:25:00.2000:21:17
9841BRESSANSERGIOM3EROI DEL PIAVE02:14:5916:25:01.9500:21:19
99710IOVACCHINIPAOLOS2SPORT 6402:15:0116:33:02.4000:21:20
100156MARCHIONEANDREAS4FUMANE TRIATHLON02:15:0116:25:03.7500:21:20
10176MELLACELUCAS4TRITALY ASD02:15:0316:25:05.8500:21:22
10250MELCHIORIENRICOS4FERALPI TRIATHLON02:15:0516:25:07.1500:21:24
10361LA SALANDRAANTHONY ALFEOS3SBR 3ATHLON02:15:0616:25:08.2000:21:25
10444SOMMARUGAGIOVANNIS4FTM TEAM02:15:1716:25:19.5000:21:36
105167BELLUZZOANDREAS2PESCHIERA TRI02:15:3216:25:34.8500:21:51
10681FERRAZZIURBANOM4SCM - TRIATHLON02:15:3416:25:36.8000:21:53
107716TOMASETTOCRISTIANS2ACQUAMBIENTE TRIATHL02:15:4416:33:45.5500:22:03
10889APERIOMATTEOS3DESENZANO TRIATHLON02:15:5516:25:57.6000:22:14
10939CURTARELLOSTEFANOM1PESCHIERA TRI02:15:5716:25:59.7000:22:16
110122OSIOTIZIANOM3G.S. MANERBA02:15:5816:26:00.5500:22:17
111223SNAIDERBAURCORRADOM2DUEMMECORSE02:15:5916:28:02.0500:22:19
112111SINNDANIELS4KSV TRIATHLON02:16:0016:26:02.4000:22:19
1131037LOTTICIIVANM1TESSERAMENTO GIORNALIERO02:16:0016:36:17.9500:22:20
114127ZAFFIRILEONARDOM2STEEL T - BG02:16:0516:26:07.7000:22:24
115183GAGGIANOLEONARDO SEBASTIANOM3DOLOMITICA NUOTO CTT02:16:1016:28:12.3000:22:29
116200MARCONICRISTIANM13K TEAM02:16:1816:28:20.2000:22:37
117823CONSOLANDIPAOLO GIORGIOM1TRI TEAM BRIANZA02:16:2116:34:22.3000:22:40
118112PEDROTTIGIANMARIOM3VALTELLINA TRIATHLON02:16:2116:26:23.7500:22:40
11978CORDIBELLASTEFANOS4VERONA TRIATHLON KM02:16:2516:26:27.8500:22:44
120193VOLPINICOLAS3EUROPA SSD02:16:2716:28:29.9500:22:47
121220MONTANARIANDREAM1MODENA TRIATHLON02:16:3016:28:32.9000:22:50
122140CATTANIDANIELES3TRIBU'02:16:3516:26:37.3000:22:54
123401VEZZOLAVALERIOM1CANOTTIERI SALO'02:16:4316:30:45.0500:23:03
12430ZILIOCESARES2TRIBU'02:17:0016:27:02.8000:23:19
125130HOCHSTETTERMATTEOS2TRAGUARDO VOLANTE02:17:0116:27:03.8000:23:20
126138CARUSOALESSANDROS2ATLETICA MANARA02:17:0316:27:06.0500:23:23
127225TAROZZIALESSANDROS2T302:17:0916:29:11.7000:23:28
12846DOS SANTOS GALVAOMARIO ROGERIOS4DUE PONTI02:17:1016:27:12.1000:23:29
129109ROMANGIULIOM2DESENZANO TRIATHLON02:17:1216:27:14.3000:23:31
130821RIGOANDREAM1VERONA TRIATHLON KM02:17:1516:35:16.4500:23:34
131125CANALFABIOS4SSDSPORTIVAMENTEBL02:17:2316:27:25.9000:23:43
13288ZENERELUCAM2VERONA TRIATHLON KM02:17:3116:27:33.9000:23:51
133145VITRANOSTEFANOM2A.S.D. TORINO TRIATH02:17:3716:27:39.7500:23:56
134136ROLLOITALOM3FERALPI TRIATHLON02:17:3916:27:41.5000:23:58
13574FRONZAMARCOM3FERSENTRI A.S.D.02:17:4116:27:43.2000:24:00
136170PERISDAVIDES3SILCA ULTRALITE02:17:4316:27:45.4000:24:02
137116MARANGONGIOVANNIM2TREVISO TRI02:17:5316:27:55.6500:24:12
138714VISCOMIGIOVANNIS2T302:17:5816:35:59.5500:24:17
139106VANNONIERMANNOM3T.D. RIMINI02:18:0416:28:07.0000:24:24
14087CASARINIMASSIMILIANOM1MODENA TRIATHLON02:18:0816:28:10.9000:24:28
141684MARCINIAKJACEKM1HBA02:18:1116:34:12.7500:24:30
142300VECCHISTEFANOS3VIADANA TRIATHLON02:18:1216:30:14.4500:24:31
143119PEVERELLIFABIOM2OTRI 1 COMO02:18:1716:28:19.7500:24:36
144216GALLARATI LOCATELLIMATTEOS3FERALPI TRIATHLON02:18:1716:30:19.9000:24:37
145948VIGOMANUELEM3T.D. CREMONA02:18:1916:38:36.8000:24:38
146224AGOSTINISILVIOM1CUS PADOVA UNIPD02:18:2316:30:25.4000:24:42
147221ROSSETTIMATTIAS3S.S.D. SCHIANTARELLI02:18:2316:30:26.0500:24:43
148294AGLIOMICHELES4A.S.D. RHODIGIUM TEA02:18:2916:30:31.7500:24:48
149128BOLZONELLODENISS3A302:18:3416:28:36.7000:24:53
15042VIANELLOMICHELES4PADOVA TRIATHLON02:18:3616:28:38.7500:24:55
15183BAZZOLIMARCOS4PESCHIERA TRI02:18:3716:28:39.5000:24:56
152142LUCCHINILUCAM1PESCHIERA TRI02:18:3716:28:39.6000:24:56
15366INCAINIRICCARDOS3SBR 3ATHLON02:18:4516:28:47.8500:25:04
154171BARUZZIANDREAS4T. T. RAVENNA02:18:4516:28:48.0500:25:05
155288COLOMBOTHOMASM2SKY LINE NUOTO02:18:5416:30:56.6500:25:13
156815CLAUTALESSANDROM1ASD CNM TRIATHLON02:18:5616:36:57.3500:25:15
157108NULLININOM3FREEZONE02:18:5616:28:58.7500:25:15
158820BERTRANDOMARCOM1FORHANS TEAM02:18:5916:37:00.1500:25:18
159172GHIRARDOLUCIOM3TREVISO TRI02:19:0116:29:03.9000:25:21
160881REBONATOGABRIELEM2PADOVANUOTO TRI02:19:1416:39:31.4000:25:33
161789TAMBORINIMARCOS4+KUOTA02:19:1716:37:18.2500:25:36
162147ROSSIALESSANDROM1CY LASER TRI SCHIO02:19:1716:29:19.6000:25:36
163101BELTRAMIGENNAROS4FUMANE TRIATHLON02:19:1716:29:19.7000:25:36
16464DALL'OLIOCHRISTIANS4TRIBO02:19:2716:29:29.7000:25:46
165722TRAMARINALESSANDROS2TRI TEAM BRIANZA02:19:3916:37:40.7000:25:58
16686MERONIDANIELES4TRI TEAM BRIANZA02:19:4216:29:45.0000:26:02
167217TESSAROLUCAM2FUMANE TRIATHLON02:19:4516:31:47.3000:26:04
168862BELLARDOLUCAM1TRI TEAM BRIANZA02:19:4716:37:48.2500:26:06
169182CAPPELLARIDAMIANOM1ASI TRIATHLON NOALE02:19:4916:31:51.3000:26:08
170838SALAFABIO RINALDOM13 LIFE02:19:5016:37:51.6500:26:09
171852GALLORINIGIANPAOLOM1TRI TEAM BRIANZA02:19:5216:37:53.7000:26:11
172218RIGATOLORENZOM5CUS PADOVA UNIPD02:19:5816:32:00.4000:26:17
173126LETOGIUSEPPEM1DDS02:20:0016:30:02.1000:26:19
1741007FRIGIERIGIOVANNIS3TESSERAMENTO GIORNALIERO02:20:0216:40:19.2500:26:21
175214ROGNONISTEFANOM4VIRTUS SENAGO02:20:1416:32:16.1500:26:33
176198ALBANESEANDREAM1VERONA TRIATHLON KM02:20:1416:32:17.0000:26:34
177265SCARPAPIERGIORGIOM1SBR 3ATHLON02:20:1616:32:18.5000:26:35
178201MARANGONIFILIPPOS3A.S.D. RHODIGIUM TEA02:20:1816:32:20.6000:26:37
179991RAINOLTERGIUSEPPEM4SPARTACUS TRILECCO02:20:2916:40:46.5000:26:48
180419POSADOSERGIOS4ASD VICENZA TRIATHLO02:20:3616:34:37.9500:26:56
181500SARTNICRISTIANM1STEEL T - BG02:20:3916:34:40.2000:26:58
182139CREMASCOLIGIANPAOLOM2SPORT 6402:20:4616:30:48.4000:27:05
18326MERAZZIGIANLUCAS2A302:20:4616:30:48.4500:27:05
184748TARTINIMATTEOS3A302:20:4616:38:47.7500:27:05
185157BOLOGNASERGIOS4TEAM BIKE GUSSAGO AS02:20:4616:30:49.0000:27:06
186161SORESIFABIOM2ASD CNM TRIATHLON02:20:4816:30:50.7000:27:07
187870CAPPELLISTEFANOM1SEA SUB MODENA02:20:5016:38:52.0000:27:10
188739BOZZANOCARLOS3POL.MAREMOLA02:20:5016:38:52.0500:27:10
189159MOUSTAFAMARCO AHMEDS2TRIATHLON BERGAMO02:20:5116:30:53.5500:27:10
190235SIBILATOMASSIMOM2VERONA TRIATHLON KM02:20:5316:32:55.9000:27:13
191951DI LEOMASSIMOM3TRIATHLON BERGAMO02:20:5616:41:13.4000:27:15
192253GIARRUSSOMAURIZIOM1CANOTTIERI SALO'02:20:5616:32:59.0500:27:16
193345BENEDETTISTEFANOM1VERONA TRIATHLON KM02:21:0116:33:03.6000:27:20
19494CRAPAROTTASAMUELEM1PROGETTO VISTA TRIAT02:21:0616:31:08.3000:27:25
19598AMITIARNALDOM4SKY LINE NUOTO02:21:0616:31:09.0000:27:26
196700MARCHESINISTEFANOS1POL.CENTESE T&D02:21:1016:37:11.9000:27:30
197315PISTOCCHISTEFANOM3T.D. RIMINI02:21:1316:33:15.2500:27:32
1981080BELTRAMIFAUSTOM1A.S.D. CANOTTIERI TI02:21:1316:35:14.9500:27:33
199135SALVAGNINIDANIELES4RUN RAN RUN T02:21:1416:31:16.6000:27:33
200154GOVERNOMARCOM3PESCHIERA TRI02:21:2116:31:23.5500:27:40
201113RIMOLIFRANCESCOM1TRI TEAM BRIANZA02:21:2616:31:28.8500:27:45
202333STOCCOMICHELEM1ASI TRIATHLON NOALE02:21:2716:33:29.4500:27:46
203143ALLIATAPIETRO CESAREM3CUSIOCUP02:21:4416:31:46.4000:28:03
2041036MIRABELLAPASQUALEM1TESSERAMENTO GIORNALIERO02:21:4516:42:02.4000:28:04
205199GIACCHELLAMICHELEM2CANDIA TRIATHLON02:21:4816:33:50.9000:28:08
206169BIANCOCHRISTIANM1ASD CNM TRIATHLON02:21:5216:31:54.9000:28:12
207148DEGASPERIMICHELEM3FERSENTRI A.S.D.02:21:5616:31:58.4500:28:15
208202RIGHETTIROCCOS3SBR 3ATHLON02:21:5916:34:01.8000:28:18
209118AVIPAOLOM4TRAGUARDO VOLANTE02:22:0016:32:02.2500:28:19
210355ROMANOMASSIMOM1AIRONE TRIATHLON02:22:0816:36:10.0500:28:28
211242FUMAGALLIMAUROM1DE RAN CLAB02:22:1016:34:12.2000:28:29
21247BERTAGNAANDREAS4PESCHIERA TRI02:22:1316:32:15.3000:28:32
213402GIACOMINDAVIDEM2TRI.RN.MAROSTICA02:22:1816:36:19.3000:28:37
214699VITAALESSANDROS1TRITEAMPORDENONE02:22:1916:38:20.1500:28:38
215766CRUCITTIPAOLOS4CANOTRIATHLON02:22:1916:40:20.8000:28:38
216245CARROLIGIACOMOM2ASI TRIATHLON NOALE02:22:2116:34:23.7000:28:40
21780ZANNONIDIEGOS4CY LASER TRI SCHIO02:22:2116:32:23.9000:28:41
218726AZZALININICOLAS3G.P. TRIATHLON02:22:2616:40:27.1000:28:45
2191019CAPUTOANDREAS4TESSERAMENTO GIORNALIERO02:22:3316:42:50.5500:28:52
220890TASINATOLEONARDOM2A.S.D. RHODIGIUM TEA02:22:3616:42:53.2500:28:55
221174ABONDIOGIAN CARLOS4ASD 226 TRIATHLON V.02:22:3616:32:38.6500:28:55
222184SARTILUCAM3TRI ALTO ADIGE02:22:4416:34:46.5000:29:03
223211LOVATOCHRISTIANS4FTM TEAM02:22:4516:34:47.3500:29:04
224361ROVARISANDREAM1TEAM BIKE GUSSAGO AS02:22:4516:36:46.9000:29:05
225690SARTORLUCAJUA302:22:4616:38:47.7000:29:05
226155MORANDOLORENZOM2VERONA TRIATHLON KM02:22:4816:32:50.3000:29:07
227151AGAZZIMASSIMOS4TRIATHLON BERGAMO02:22:5016:32:52.1500:29:09
228327LOFINOOTTAVIOM2DUEMMECORSE02:22:5016:34:52.1500:29:09
229229SCOTTIALBERTOS3S.S.D. SCHIANTARELLI02:22:5116:34:53.9500:29:11
230351PERLODANIELES4GRANBIKE TRIATHLON02:22:5216:36:53.5000:29:11
231448DESTROSTEFANOM2A.S. DELFINO CHIOGGI02:22:5616:36:57.6500:29:15
2321010MONTEBELLOTOMMASOS3TESSERAMENTO GIORNALIERO02:22:5616:43:13.9000:29:16
233123RANDOMATTEOS4VERONA TRIATHLON KM02:22:5916:33:01.2000:29:18
234770BORDISTEFANOS4A.S.D. 3T02:23:0016:41:01.5500:29:19
235246STEGAGNOFEDERICOM1VERONA TRIATHLON KM02:23:0316:35:05.2000:29:22
236872CAMPORESIANTONIOM1T.D. RIMINI02:23:0916:41:10.1500:29:28
237243CARRARINIMAUROS4MARTINA DOGANA TRITE02:23:1016:35:12.8000:29:29
23882PASSARELLOMARCOS3ASD CNM TRIATHLON02:23:1116:33:13.3000:29:30
239209FULCINIALESSANDROM1ATLETICA MANARA02:23:1416:35:16.1500:29:33
240239CHINELLICRISTIANS4PIACENZATRIVITTORINO02:23:2116:35:23.9500:29:41
241855BACCOSIMONEM1ACQUAMBIENTE TRIATHL02:23:2516:41:26.2500:29:44
242191COLETTOGIANMARIAS4OTRI 1 COMO02:23:3116:35:33.4000:29:50
243248SALERNOGIUSEPPES3DE RAN CLAB02:23:3316:35:35.5000:29:52
244254TESTAMARCOS3TRIATHLON BERGAMO02:23:3516:35:37.8000:29:54
245244OLDANISIMONES4SKY LINE NUOTO02:23:3616:35:38.5000:29:55
246280PERSICHITTISTEFANOM2PROPATRIA MILANO02:23:3616:35:38.6000:29:55
247149CERESAFRANCESCOS4DA PAURA02:23:4016:33:42.4000:29:59
248418MIRANDOLADARIOM1FUMANE TRIATHLON02:23:4716:37:48.8500:30:06
249376ATERICLAUDIOM1TAPATRIATHLON TEAM02:23:4816:37:49.8500:30:07
250734ROVERSIROBERTOS3DOLOMITICA NUOTO CTT02:23:5316:41:54.2500:30:12
251736RESTAEMANUELES3S.S.D. SCHIANTARELLI02:23:5416:41:55.6500:30:13
252400BELLINISTEFANOM2VALBOSSA TRIATHLON02:23:5716:37:58.4000:30:16
253704GANDAALESSANDROS2CANOTRIATHLON02:23:5816:41:59.1500:30:17
254255CATARDIMAUROM1OLIMPIC TRIATHLON02:23:5816:36:00.6500:30:17
25596DAMIANIGUIDOS4DESENZANO TRIATHLON02:23:5816:34:01.0500:30:18
256411GRANUZZOANDREAM2FUMANE TRIATHLON02:24:0316:38:04.9500:30:23
257132ZURLOLORENZOM1MAS TRIATHLON02:24:0516:34:07.4500:30:24
258207ROSSISEBASTIANOM1TRIATHLON CREMONA ST02:24:0716:36:10.0500:30:27
259759MODOLOMICHELES3A302:24:1016:42:12.0500:30:30
2601004CRISTINIJACOPOS2TESSERAMENTO GIORNALIERO02:24:1216:44:29.4000:30:31
261299ZAMPEDRIVINCENZOM3PROPATRIA MILANO02:24:1316:36:15.3000:30:32
2621025BENIGNICRISTIANS4TESSERAMENTO GIORNALIERO02:24:1416:44:31.6000:30:33
263771AMBROSINOGIACOMOS4GRANBIKE TRIATHLON02:24:1416:42:16.0000:30:34
264788CASTELLIALEXANDROS4GRANBIKE TRIATHLON02:24:1916:42:20.2000:30:38
265457GOLFETTOENRICOM3EROI DEL PIAVE02:24:2116:38:22.2000:30:40
266434SORDINAALVISEM3ASI TRIATHLON NOALE02:24:2516:38:26.3000:30:44
267275PELLIZZARIPAOLOM2A302:24:3416:36:36.8500:30:53
268261MALACALZACARLOM2MB TRIATHLON02:24:3816:36:40.2500:30:57
269176BERTAGNINGIOVANNIM3VALLE GESSO SPORT02:24:4016:36:42.5000:30:59
270332MACHERELLIALDOM3ASD SPEZIA TRIATHLO02:24:4316:36:45.5000:31:02
271227MORELLOANDREAM1NLF02:24:4916:36:51.1000:31:08
272293DE MICHELEVINCENZOS4A.S.D. VARESE TRIATH02:24:5116:36:53.4500:31:10
273186BEATIANDREAM2G.P. QUADRIFOGLIO02:24:5216:36:54.9000:31:12
274238CAMBRUZZIMASSIMOM3CUS PADOVA UNIPD02:24:5616:36:58.8500:31:15
275215GHEZATIZIANOM3FERALPI TRIATHLON02:24:5916:37:01.4500:31:18
276279BLUNDETTOROBERTOM2COOPERATORI02:25:0016:37:02.5000:31:19
277137MAZZOCCHIGIAN MARCOM1CANOTRIATHLON02:25:0016:35:02.7500:31:19
278134SIMIGABRIELEM2CUS PADOVA UNIPD02:25:0116:35:03.9500:31:21
279104BORTOLETTOALBERTOS4CUS PADOVA UNIPD02:25:0416:35:06.5000:31:23
280117BOMBARDELLIPATRICKS4DOLOMITICA NUOTO CTT02:25:0616:35:08.2000:31:25
281428ARISIGIUSEPPEM3VIADANA TRIATHLON02:25:0716:39:08.6000:31:26
282187PERLODAVIDES2GRANBIKE TRIATHLON02:25:1116:37:13.1500:31:30
283415BONAEMANUELES4TEAM BIKE GUSSAGO AS02:25:1416:39:15.2500:31:33
284412ZENEREDENISM1TRI.RN.MAROSTICA02:25:1416:39:15.5500:31:33
285698QUAQUARELLIMATTEOS1DESENZANO TRIATHLON02:25:1516:41:16.4000:31:34
286195BETTAMATTEOS4ASD 226 TRIATHLON V.02:25:1616:37:18.5500:31:35
287479GAMBAFABIOS3CANOTTIERI SALO'02:25:2016:39:21.7000:31:39
288975ALLIRIGIOVANNIM3POL.MAREMOLA02:25:2216:45:39.1000:31:41
289367VANGELISTIANGELOM2VERONA TRIATHLON KM02:25:2316:39:24.1000:31:42
290730CASATIFEDERICOS3PROPATRIA MILANO02:25:2616:43:27.8000:31:45
291341GARZONIETTOREM4FERALPI TRIATHLON02:25:2716:37:29.9000:31:47
292780SEVERGNINISTEFANOS43 LIFE02:25:2916:43:30.2000:31:48
293313SAMMARINIALBERTOM3TRIBO02:25:3116:37:33.7000:31:50
294144BARBARESDIEGOS3TREVISO TRI02:25:3516:35:37.3000:31:54
295352COTTICARLOM4KINO - MANA02:25:3616:39:37.5000:31:55
296276NICCOLAIVALERIOS3ASD SPEZIA TRIATHLO02:25:3616:37:39.0000:31:56
297340PARISEFRANCESCOS3ASD VICENZA TRIATHLO02:25:3716:37:39.1500:31:56
298405BRUNATODANIELEM2KSV TRIATHLON02:25:3716:39:38.5000:31:56
299258VALOTAPAOLOM1OLIMPIC TRIATHLON02:25:3916:37:41.3000:31:58
300210GARBELLIALESSANDROS4EUROPA SSD02:25:4016:37:42.4000:31:59
301153CUNEOPAOLOM4ALBA TRI02:25:4316:35:45.5000:32:02
302133ZANETTIRUDYS2EROI DEL PIAVE02:25:4316:35:45.5000:32:02
303347ORSATOMIRCOM3MARTINA DOGANA TRITE02:25:4416:37:46.5000:32:03
304976ZANOTTIMARCOM3SMR TRIATHLON02:25:4516:46:02.7000:32:04
305642LA VIOLASALVATOREM3ASD CNM TRIATHLON02:25:4616:41:47.8000:32:05
306264CODENFABIOS4EROI DEL PIAVE02:25:5216:37:54.7000:32:11
307289LODDETOMMASOM2TREVISO TRI02:25:5316:37:56.0000:32:13
308478CAPORIZZOMASSIMOS3OXYGEN TRIATHLON02:25:5616:39:57.4000:32:15
3091079SCHUENDAVIDES4TESSERAMENTO GIORNALIERO02:26:0516:46:22.3000:32:24
310563CAVASINMICHELES4SBR 3ATHLON02:26:0516:42:06.9000:32:25
311219GABBIRICCARDOM3VENEZIA TRATHLON02:26:1516:38:17.3500:32:34
312804SOLDA'ALESSANDROS4MARTINA DOGANA TRITE02:26:1516:44:16.3500:32:34
313290URBANIALESSANDROM1ASD CNM TRIATHLON02:26:1916:38:21.4000:32:38
3141016CARUSOCARLO ALBERTOS3TESSERAMENTO GIORNALIERO02:26:2116:46:38.5500:32:40
315719FIORELLODAVIDES2TAPATRIATHLON TEAM02:26:2216:44:23.1000:32:41
316240PASQUALINIMARTINOM33K TEAM02:26:2316:38:25.2500:32:42
317165MELETTILUIGIM3MODENA TRIATHLON02:26:2316:36:25.8000:32:42
318158PAOLUCCIFILIPPOS3PADOVA TRIATHLON02:26:2516:36:27.3500:32:44
319283SPARBERFLORIANM2KSV TRIATHLON02:26:2616:38:28.3000:32:45
320947BERTOLAZZIORLANDOM3FUMANE TRIATHLON02:26:2816:46:45.4500:32:47
321426CELLIEANTONIOM3KINO - MANA02:26:2816:40:29.8500:32:47
322317CARMINEARONNE FILIPPOS3VTT02:26:3116:38:33.2000:32:50
323263GABRIELIALESSANDROS2A.S.D. RHODIGIUM TEA02:26:3116:38:33.6000:32:50
324331VERGANIFABRIZIOM4STEEL T - BG02:26:3416:38:36.1500:32:53
325309SAVKONICOGNJENS3LC BOZEN02:26:3916:38:41.6000:32:58
326732BERTE'MATTEOS3AVIO TRIATHLON02:26:4116:44:42.7000:33:00
327233CHRISTIANBERNARDS3KSV TRIATHLON02:26:4416:38:46.8500:33:03
328257MONTANIGIORGIOM3TRI NOVARA02:26:4516:38:47.2000:33:04
329965COZZARINMICHELEM3TRITEAMPORDENONE02:26:4616:47:03.3500:33:05
330251AQUILINIANDREAS3STEEL T - BG02:26:5416:38:56.8000:33:13
331270DORIAVINCENZOM3ASD CNM TRIATHLON02:26:5616:38:58.5000:33:15
332308PASINICLAUDIOM2ASD CNM TRIATHLON02:26:5616:38:58.6500:33:15
333386DI LILLOMASSIMOM2VTT02:26:5816:40:59.4500:33:17
334272GAVAGNINLUCAS3VENEZIA TRATHLON02:26:5916:39:01.4500:33:18
335175ANTONELLILUIGIM1ROAD RUNNERS02:27:0416:37:06.1500:33:23
336206DE BENIEDOARDOS2MB TRIATHLON02:27:0816:39:10.6000:33:27
337891TINTIALESSANDROM2G.P. TRIATHLON02:27:0816:47:26.0500:33:28
338356CIGLIOLAMAURIZIOM1TRI TEAM BRIANZA02:27:1116:41:12.6000:33:30
339913CASARETTIROBERTOM2CUS PARMA ASD02:27:1916:47:37.0000:33:39
340250MARTINELLIJACOPOM1ROAD RUNNERS02:27:2716:39:29.3000:33:46
341733CINELLIMARCOS3SPORT WELLNESS TRIAT02:27:2816:45:29.4500:33:47
342310NADALDARIOS4TRITEAMPORDENONE02:27:3116:39:33.1500:33:50
343273FASOLIDIEGOM2PESCHIERA TRI02:27:4216:39:44.1500:34:01
344306SPOSITOANDREAS4PADOVANUOTO TRI02:27:4416:39:46.2000:34:03
345266CASAGRANDEGIANLUCAM3DINAMO TRIATHLON02:27:4816:39:51.0500:34:08
346510LONGOMARCOM3FUMANE TRIATHLON02:27:5016:41:51.4000:34:09
347228CAVALLINIMIRKOM2FUMANE TRIATHLON02:27:5016:39:52.5500:34:09
348917MARIUTTIMICHELEM2EROI DEL PIAVE02:27:5216:48:09.1000:34:11
3491013LELLIALBERTOS3TESSERAMENTO GIORNALIERO02:27:5216:48:10.0500:34:12
350360FOSSATIMAURIZIOM2IRONLARIOTRIATH02:27:5316:41:54.7000:34:12
351777SCOLAROROBERTOS4DOCTORBIKE TRIATHLON02:27:5416:45:55.7000:34:13
352204VRATONJAALANS43K TEAM02:28:0316:40:05.4000:34:22
353305MARCHINIALESSANDROS4T.T. CESENATICO02:28:0616:40:08.6000:34:25
354393BANALOTTILUCIANOS4CANOTTIERI SALO'02:28:0916:42:10.8500:34:28
355374ZANETTISTEFANOM2FUMANE TRIATHLON02:28:1316:42:14.1000:34:32
356237MONTRUCCHIOALESSIOS3A.S. VIRTUS02:28:1816:40:20.4500:34:37
357320GOLINOFRANCESCOS2ASD VICENZA TRIATHLO02:28:2216:40:24.4500:34:41
358141MELOTTISILVANOM3VERONA TRIATHLON KM02:28:2316:38:25.1500:34:42
359387BERLENDISDIEGOM1PESCHIERA TRI02:28:2516:42:26.9000:34:45
360146GIANELLINICOLAM1PESCHIERA TRI02:28:2616:38:28.9000:34:46
361397ARCARIMIRCOM2ZEROTRENTA TRIATHLON02:28:2816:42:29.9000:34:48
362344BERTAZZONIPAOLOM3CANOTRIATHLON02:28:3116:40:33.9000:34:51
363291MARCAZZANBARNABAS4TRIATHLON CREMONA ST02:28:3216:40:34.5000:34:51
364712TURATIANDREAS2SPORT MANAGEMENT02:28:3216:46:33.5000:34:51
3651024RICHERIFILIPPOS4TESSERAMENTO GIORNALIERO02:28:3616:48:53.9000:34:56
366513BELLINFILIPPOM4TREVISO TRI02:28:4516:42:46.7000:35:04
367295AGOSTINILUCAM3TRI TEAM BRIANZA02:28:4716:40:49.2500:35:06
368115PAPPERIDANILOM1DINAMO TRIATHLON02:28:5116:38:53.7500:35:10
369230SEGALLAGABRIELM3VERONA TRIATHLON KM02:28:5316:40:55.4000:35:12
370910PADOVACRISTIANM2FERALPI TRIATHLON02:28:5516:49:12.4500:35:14
371189LUBNERFABRIZIO VITTORIO JAM2ROAD RUNNERS02:28:5716:40:59.8500:35:16
372336LEZOCHEGIOVANNIM1CANDIA TRIATHLON02:28:5716:41:00.0000:35:17
373693REIANDREAJUPIACENZATRIVITTORINO02:28:5916:45:00.3000:35:18
374394RONCASTEFANOM1FUMANE TRIATHLON02:29:0116:43:03.0500:35:21
375392MAFFIOLILUIGIM2TRI NOVARA02:29:0316:43:05.0500:35:23
376472BAZZONIDAVIDEM1OTRI 1 COMO02:29:0716:43:08.2500:35:26
377444BARONICORRADOM2ASD CNM TRIATHLON02:29:0816:43:09.3000:35:27
378515BELLISOMOLUCAM3ASD CNM TRIATHLON02:29:0816:43:09.3500:35:27
379499LUCATORAFFAELEM347 ANNO DOMINI02:29:1016:43:11.8000:35:29
380297PAVANELLOANDREAS2CUS PADOVA UNIPD02:29:1216:41:15.0000:35:32
381390FAVELLALUCAM2VIADANA TRIATHLON02:29:1616:43:17.8500:35:35
382379PAIARDIMAURIZIOM1TRIATHLON CREMONA ST02:29:1816:43:19.3000:35:37
3831060WOLFGANGENGELHARDTM2TESSERAMENTO GIORNALIERO02:29:1916:49:36.2000:35:38
384489NICOLISMARCOM3PESCHIERA TRI02:29:2116:43:22.2000:35:40
385181RAIMONDIPAOLOM2BUSTO ARSIZIO A.R.C.02:29:2316:41:26.0500:35:43
386445FERRARISIMONES4ZEROTRENTA TRIATHLON02:29:3116:43:32.6500:35:50
387256CINQUETTILUCIOM4T'N'T SSD02:29:3516:41:37.2500:35:54
388967AGOSTINIMARCOM3G.S. BARDOLINO02:29:3516:49:52.4000:35:54
389735CHECCHINMATTEOS3A302:29:3916:47:40.2000:35:58
390371DELLA TORREMICHELEM2OTRI 1 COMO02:29:3916:43:40.7000:35:58
391287BOSIMASSIMOM2PROGETTO VISTA TRIAT02:29:4016:41:42.9500:36:00
392836GASPARINIANDREAM1DESENZANO TRIATHLON02:29:4416:47:45.5000:36:03
393260TZOREFFMISHAELM3ASD CNM TRIATHLON02:29:4516:41:47.8000:36:04
394236PIANCONEMICHELEM1ROAD RUNNERS02:29:4816:41:50.8500:36:07
395424TERZIGIUSEPPEM1BLACK BART02:29:5016:43:51.8000:36:09
396441FULCINIMICHELEM3BLACK BART02:29:5216:43:53.1000:36:11
397282MASIELLOPAOLOM2VERDE PISELLO GROUP02:29:5516:41:57.2000:36:14
398471ALLIEVIANDREAM4OTRI 1 COMO02:29:5616:43:57.5500:36:15
399262ERCULIANINICOLAM2PESCHIERA TRI02:29:5716:41:59.4500:36:16
400226OLIVIERIALESSANDROM2PESCHIERA TRI02:29:5716:41:59.6000:36:16
401335BERTONIVITTORIOM3FERALPI TRIATHLON02:29:5816:42:00.1500:36:17
402222PEZZUCCHIAMOSM2ASD 226 TRIATHLON V.02:30:0216:42:04.2500:36:21
403752VECCHIDAVIDES3VIADANA TRIATHLON02:30:0816:48:09.1000:36:27
404679HEILMANNDANIELS2POST SV NÜRNBERG02:30:0916:46:10.9000:36:29
405439MERCATELLILUCAM2TRI EVOLUTION02:30:1316:44:14.3500:36:32
406365GALLINAALFREDOM2FERALPI TRIATHLON02:30:1416:44:15.6500:36:33
407761CAMPIDAVIDES4SARONNO TRIATHLON02:30:1516:48:16.3000:36:34
408363MACAGNANOANDREAM1A TEAM02:30:1516:44:16.6500:36:34
409940BIANCHIGIANNIM2VERONA TRIATHLON KM02:30:1816:50:35.2500:36:37
410503MAGAGNOTTIMARCOM2PESCHIERA TRI02:30:1816:44:19.9000:36:38
411370MARDEGANGIORGIOM2PROPATRIA MILANO02:30:2116:44:22.2000:36:40
412918TIEFENBRUNNERGEORGM2LC BOZEN02:30:2316:50:40.5000:36:42
413296BALLESIOGUIDOM1CANAVESE TRIATHLON02:30:2316:42:25.7500:36:42
414164BISCONTINANDREAM1SBR 3ATHLON02:30:2716:40:29.2500:36:46
415425ZAFFAINAMARIUCCIOM2VERONA TRIATHLON KM02:30:2816:44:29.6000:36:47
416375MIGLIORATIPIERLUIGIM2TEAM BIKE GUSSAGO AS02:30:3116:44:32.6500:36:50
417249PAROLINIPAOLOM2SBR 3ATHLON02:30:3216:42:34.8500:36:51
418454CORSOALDOM1PROPATRIA MILANO02:30:3316:44:34.8000:36:52
419429ABENIMIRKOM1TRIATHLON CREMONA ST02:30:3916:44:40.1000:36:58
420860PAVANSIMONEM1MARTINA DOGANA TRITE02:30:4116:48:42.1500:37:00
421205TOLDOPAOLOS4RUN RAN RUN T02:30:4616:42:48.3500:37:05
422168TROLESEMASSIMILIANOS4VERONA TRIATHLON KM02:30:4716:40:49.1000:37:06
423899GEMELLILUIGIM2TRIBO02:30:4816:51:05.8500:37:07
424463ZANUSOSTEFANOM1VERONA TRIATHLON KM02:30:4916:44:50.3000:37:08
425473LAZZARIFABRIZIOM4EUROPA SSD02:30:5216:44:53.3500:37:11
426399BOCCHIMATTEOM2ATLETICA MANARA02:30:5316:44:54.1500:37:12
427811ORDANORAIMONDOM1FIAMME CREMISI ITATR02:30:5316:48:54.8000:37:12
428350LO PARCOALESSANDROM2VERONA TRIATHLON KM02:30:5716:42:59.3500:37:16
429304BIONDANIENRICOM3VERONA TRIATHLON KM02:30:5716:42:59.4000:37:16
430389D'AMMORALUCAM2PROPATRIA MILANO02:30:5716:44:58.4000:37:16
431706CHIODIENRICOS2DERTHONA NUOTO SCSD02:31:0016:49:02.0000:37:20
432180LIGORIOGIUSEPPEM1SPORT 6402:31:0316:43:05.7000:37:22
433302TAVEGGIAALESSANDROM3ASD CNM TRIATHLON02:31:0716:43:09.2000:37:26
434863SPETTOLILORENZOM133 TT ASD02:31:0716:49:08.4000:37:26
435408CORRADIMAURIZIOM1ATLETICA MANARA02:31:0716:45:08.4500:37:26
436259LATTUCAGERLANDOM1OTRI 1 COMO02:31:2316:43:25.8000:37:42
437433BASSANIPAOLOS4VIRTUS SENAGO02:31:2616:45:27.6000:37:45
4381011MURRAY-JONESROSSS3TESSERAMENTO GIORNALIERO02:31:2816:51:45.1000:37:47
439353POGGIOALBERTOM1TEAM MEDIA BIKE02:31:3216:45:33.9000:37:52
440942ORLANDISTEFANOM2ASD CNM TRIATHLON02:31:3516:51:53.0000:37:55
441767MERELLISIMONES4SARONNO TRIATHLON02:31:4016:49:41.7500:37:59
4421046CARTAGRAZIANOM2TESSERAMENTO GIORNALIERO02:31:4116:51:58.3000:38:00
443213PLANAMENTEANTONIOM4STEEL T - BG02:31:4416:43:46.2500:38:03
444825USARDISTEFANOM1VERONA TRIATHLON KM02:31:4416:49:45.5500:38:03
445432PANGRAZZIMASSIMOM3FERSENTRI A.S.D.02:31:4916:45:50.8500:38:08
446903PIRAINOLUCA LETTERIOM2PROPATRIA MILANO02:31:5116:52:08.1000:38:10
447285BARETTODAVIDEM2RUNNERS SALO'02:32:0116:44:03.3000:38:20
448396DESIDERIOALESSANDROM2CUSIOCUP02:32:0116:46:03.0500:38:21
449460COLETTIMATTEOM1ATLETICA MANARA02:32:0416:46:05.5500:38:23
450185BELTRAMIPAOLOS3FERALPI TRIATHLON02:32:0816:44:10.4000:38:27
451330BARBIERIIVANS4TEAM BIKE GUSSAGO AS02:32:1116:44:13.6000:38:30
452357LUGOBONISTEFANOM3FUMANE TRIATHLON02:32:1516:46:16.1000:38:34
453511SBROLLINIFRANCOM4T.D. RIMINI02:32:1816:46:19.4000:38:37
4541028ESPOSITORICCARDOS4TESSERAMENTO GIORNALIERO02:32:2416:52:41.2500:38:43
455455CONCONIGIAMPIETROM4STEEL T - BG02:32:2716:46:28.2000:38:46
456417BORTOLETTOALESSANDROM2CUS PADOVA UNIPD02:32:3016:46:31.8000:38:49
457450ANELLILUCAS4S.S.D. SCHIANTARELLI02:32:3316:46:34.5500:38:52
458307GUARNIERIGABRIELEM5TRIATHLON BERGAMO02:32:3616:44:38.6000:38:55
4591017TRASPEDININICOLAS4TESSERAMENTO GIORNALIERO02:32:3916:52:56.1000:38:58
460531LONGOANDREAM3PROPATRIA MILANO02:32:3916:48:40.3500:38:58
461784SANTINDANIELES4SILCA ULTRALITE02:32:4316:50:44.7500:39:02
462212ZANELLALUCAM3CUS TRENTO CTT02:32:4616:44:48.4000:39:05
463954CASALATINAENRICOM3MARTINA DOGANA TRITE02:32:4616:53:03.8500:39:05
464232ROCCHIOFABRIZIOM3PROPATRIA MILANO02:32:5016:44:52.3500:39:09
465292PREVIEROEDOARDOM5VERONA TRIATHLON KM02:32:5816:45:00.7500:39:17
466319SCAFUROGERARDOM2VIRTUS SENAGO02:33:0616:45:09.0500:39:26
467502BIANCOLUCAM3IRONBIELLA02:33:0716:47:09.0000:39:27
468718BACCOANDREAS2P.C. NATURAL SPORT02:33:0816:51:09.2000:39:27
469725MARINONISIMONES3S.S.D. SCHIANTARELLI02:33:1616:51:17.5500:39:35
470751FICICCHIAMAURIZIOS3FUMANE TRIATHLON02:33:2316:51:24.4000:39:42
471482CRISTOFOLINIPAOLOM1ASD TRIATHLON 3V02:33:2716:47:28.1000:39:46
472486RUSALENPAOLOM3FUMANE TRIATHLON02:33:2716:47:28.8000:39:46
473827CARMINATIMARCOM1TRIATHLON BERGAMO02:33:2716:51:29.0000:39:47
474920PRAVATOLUCAM2PADOVA TRIATHLON02:33:2916:53:46.4000:39:48
475321PAGANIANTONIOM3OLIMPIC TRIATHLON02:33:3016:45:32.6500:39:49
476349BIGGIOFIORENZOM2ASD CNM TRIATHLON02:33:3416:45:36.7500:39:53
477446DEANGELISCRISTIANOM3ROAD RUNNERS02:33:3716:47:38.1000:39:56
478316FORNAROMATTEOS3VERONA TRIATHLON KM02:33:3716:45:39.2500:39:56
479540KRAUSE-TUENKERSASCHAM1OXYGEN TRIATHLON02:33:4516:49:46.9000:40:05
480837GAIANIGOALBERTOM1ASD VICENZA TRIATHLO02:33:5016:51:51.5000:40:09
481427MARIANDREAM1CANAVESE TRIATHLON02:33:5516:47:56.2500:40:14
482354CALCATERRAGIUSEPPEM2ASD TEAM HIBISCUS02:33:5516:47:57.0000:40:15
483271BOSCHINICLAUDIOM1TRI RACE ROCK TEAM02:34:0216:46:04.1000:40:21
484430FINETTOALBINOM3FUMANE TRIATHLON02:34:0216:48:03.8000:40:21
485969GUGOLESTEFANOM3G.S. ALPINI VICENZA02:34:0416:54:22.0500:40:24
486107BALDINIMATTEOS4RUN RAN RUN T02:34:0516:44:07.9000:40:25
4871023COSENTINOPASQUALES4TESSERAMENTO GIORNALIERO02:34:0916:54:26.2500:40:28
488268DONADEOMAUROS3PADOVA TRIATHLON02:34:0916:46:12.0000:40:29
48995BONERFILIPPOM1PESCHIERA TRI02:34:1416:44:16.1500:40:33
490436MOROSATOSTEFANOM3T.D. CREMONA02:34:1616:48:17.7000:40:35
491461ZUCCARDI MERLIGIANLUIGIM5PROPATRIA MILANO02:34:1816:48:19.8000:40:37
492955FERRANTEFRANCESCOM3SSDSPORTIVAMENTEBL02:34:3016:54:47.6000:40:49
493484VASONFABIOM5PADOVA TRIATHLON02:34:3116:48:32.3000:40:50
494522CRESPIFABRIZIOM2TRIATHLON BERGAMO02:34:3216:48:33.3500:40:51
495709GASTALDELLONICCOLO'S2TRAGUARDO VOLANTE02:34:3416:52:35.3000:40:53
496952NASCIMBENEGIANLUCAM3RASCHIANI TRI PAVESE02:34:3616:54:53.8500:40:55
497338VERONESIANDREAM2COOPERATORI02:34:3916:46:41.5000:40:58
498453MARABELLODAMIANOM1VERONA TRIATHLON KM02:34:3916:48:40.9500:40:59
499284PARIZZIFABIOM3RASCHIANI TRI PAVESE02:34:4316:46:46.0500:41:03
500391FORTEALESSANDROS3TRI.RN.MAROSTICA02:34:4516:48:46.2500:41:04
501897GHE'ALBERTOM2VENICEMARATHON CLUB02:34:4716:55:04.8000:41:06
502532BENEDETTISTEFANOM2T'N'T SSD02:34:5016:50:51.3000:41:09
503406SCAGLIOLAMARCOM1A.S. VIRTUS02:34:5016:48:51.7000:41:09
504790LIONELLOMARCOS4CUS PADOVA UNIPD02:34:5116:52:52.7000:41:10
505983CAPODAGLIOITALOM3TRI TEAM BRIANZA02:34:5416:55:11.2000:41:13
506737GHIRIMOLDIGIANNIS3OTRI 1 COMO02:34:5416:52:55.5000:41:13
507470DALBONMICHELEM133 TT ASD02:34:5516:48:56.4000:41:14
508322PESCECORRADOM3VERONA TRIATHLON KM02:35:0116:47:03.9500:41:21
509492FERROPAOLOM4BUSTO ARSIZIO A.R.C.02:35:0416:49:05.9000:41:24
510241LONGOPAOLOS3TRIBU'02:35:0416:47:07.0500:41:24
511972PARINIROBERTOM3TAPATRIATHLON TEAM02:35:0716:55:25.0500:41:27
512483NENCIONIGABRIELEM2ROAD RUNNERS02:35:0816:49:09.3500:41:27
513851GOBBIMASSIMILIANOM1TRIATHLON CONCESIO02:35:0916:53:10.9500:41:29
514805PANINIRAFFAELLOS4COOPERATORI02:35:1216:53:13.6000:41:31
515497MERISIOLUCA FRANCESCOM1TRIATHLON CREMONA ST02:35:1516:49:16.7000:41:34
516939BRUNNEROSWALDM2KSV TRIATHLON02:35:2416:55:41.1500:41:43
517267GATTIJARIS3SAVONA TRIATHLON02:35:2516:47:27.9000:41:45
51885MARCHESINIANDREAM1TRAGUARDO VOLANTE02:35:3016:45:32.7500:41:49
5191009PISTOIAMATTEOS3TESSERAMENTO GIORNALIERO02:35:3216:55:49.4500:41:51
520634NOTOALESSIOS4CANDIA TRIATHLON02:35:3316:51:34.4000:41:52
521382DE ZOTTICHRISTIANM1RHO TRIATHLON CLUB02:35:3516:49:36.4500:41:54
522998CHIGGIATOMICHELEM4VENICEMARATHON CLUB02:35:3816:55:56.0500:41:58
523173LAZZARALUCAM3CUS PADOVA UNIPD02:35:4316:45:45.4000:42:02
524924ZAMMARCHIDANIELEM2T.T. CESENATICO02:35:4516:56:02.2000:42:04
525395SPAGNAGIOVANNIS3VERONA TRIATHLON KM02:35:4916:49:50.6500:42:08
526247FORMIGONILUCAM3LC BRUGHERIO 202:35:5116:47:53.2500:42:10
527325PAVANENRICOM1A.S.D. RHODIGIUM TEA02:35:5316:47:55.6500:42:12
528381TOMEZZOLITIZIANOM3FUMANE TRIATHLON02:35:5516:49:56.2000:42:14
529740TOMIETTOFRANCESCOS347 ANNO DOMINI02:35:5916:54:00.8500:42:18
530929ZAMPEDRIPIERANGELOM2EUROPA SSD02:36:0116:56:18.8000:42:20
531760VERDELLIDANIELES4MELEGNANO TRIATHLON02:36:0316:54:04.9000:42:23
532343ZONZINIMATTEOM2TRAGUARDO VOLANTE02:36:0816:48:10.1500:42:27
533373MARCHESINIIVANM1G.S. BARDOLINO02:36:0816:50:09.7500:42:27
534742PALLADINONICOLAS3AMA TRIATHLON02:36:1316:54:14.8500:42:32
535469MASELLIENRICOS4PORTA SARAGOZZA BO02:36:1516:50:16.7500:42:34
536398TANCREDIRICHARD JAMESM1RASCHIANI TRI PAVESE02:36:1716:50:18.8500:42:36
537372CARNEVALINIMICHELEM2CANDIA TRIATHLON02:36:2016:50:21.9000:42:40
538514MORIDAVIDEM2ATLETICA MANARA02:36:2916:50:30.4500:42:48
539560ZUDDASMARCELLOM2ZEROTRENTA TRIATHLON02:36:3416:52:35.1000:42:53
5401040SOMMARIVALORENZOM1TESSERAMENTO GIORNALIERO02:36:3816:56:55.6000:42:57
541633PAULFABIO OTTO PAOLOM3LC BRUGHERIO 202:36:3916:52:40.2000:42:58
542970CLOCHEULRICHM3FLIPPER EIFFEL ASCOL02:36:4116:56:58.9000:43:01
543506PORDENONSERGIOM2AIRONE TRIATHLON02:36:4616:50:47.7000:43:05
544518MONTAGNERANTONIOM3TREVISO TRI02:36:5116:50:52.3000:43:10
545619FANTONEJULIO AUGUSTOM4FERSENTRI A.S.D.02:36:5816:53:00.0500:43:18
546359BONOMETTOSTEFANOM2SBR 3ATHLON02:36:5916:51:00.6000:43:18
547334BIGHELLIMICHELES4PESCHIERA TRI02:37:0816:49:10.3500:43:27
548416GARAUGIUSEPPEM1TRITALY ASD02:37:0916:51:10.6000:43:28
549476FERRARIOROBERTOM3BUSTO ARSIZIO A.R.C.02:37:1016:51:11.1500:43:29
550366ZERBONIVALERIOS4ASD 226 TRIATHLON V.02:37:1516:51:17.0500:43:35
5511008MONTANARIBRANDOS3TESSERAMENTO GIORNALIERO02:37:1716:57:34.9000:43:37
552203VIANELLONICOLO'M3MODENA TRIATHLON02:37:2816:49:30.1000:43:47
553832BERTELLIALFREDOM1CANOTTIERI SALO'02:37:3116:55:32.3500:43:50
554328PIOLANTISTEFANOM5TRIIRON02:37:3216:49:35.0000:43:52
555741IORIOVINCENZOS3TRIMM TEAM BY LIFE L02:37:3816:55:39.2000:43:57
556435MEDADAVIDEM2PROPATRIA MILANO02:37:5016:51:51.6500:44:09
557488AGOSTINIMARCOM1TEAM BIKE GUSSAGO AS02:37:5216:51:53.1500:44:11
558301ZAUSAMICHELEM1SBR 3ATHLON02:37:5516:49:57.8500:44:14
559231PRANDIMARCELLOM3COOPERATORI02:38:0316:50:05.2500:44:22
560368MALERBACARLOM270702:38:0616:52:07.7000:44:25
561377MANZONIMARCOS470702:38:0616:52:07.9000:44:26
562447OLIARIRICCARDOM2DOLOMITICA NUOTO CTT02:38:1416:52:15.8500:44:33
563797LAMURAFIORENZOS4TRI TEAM BRIANZA02:38:1516:56:16.5000:44:34
564517CARROZZOCHRISTIANM1OTRI 1 COMO02:38:1716:52:18.9000:44:37
565525CIMIANOMASSIMOM1A.S. VIRTUS02:38:2616:52:28.0000:44:46
566861MONGINIALESSANDROM1A.S.D. TORINO TRIATH02:38:2716:56:28.7000:44:46
567311ASTOLFISTEFANOM2VTT02:38:2816:50:30.4000:44:47
568814GIROLACRISTIANO CARLOM1ROAD RUNNERS02:38:2916:56:30.8500:44:48
569796MALTAROLOMARCOS4A.S.D. RHODIGIUM TEA02:38:3116:56:32.5000:44:50
570538DALLERAPIETROM2TRIATHLON CONCESIO02:38:3716:54:38.7000:44:56
571867ACHILLIPAOLOM1K3 CREMONA02:38:3916:56:41.0000:44:59
572556BOTTELLIMASSIMOM1PROPATRIA MILANO02:38:4716:54:48.7500:45:06
573543TOLUEMANUELEM1MODENA TRIATHLON02:38:5016:54:51.3000:45:09
574914FERRARAANDREAM2CUS BRESCIA02:38:5016:59:07.4500:45:09
575617MANCINIFRANCESCOM3CANOTRIATHLON02:38:5116:54:52.3000:45:10
576853ANTONAZZODAMIANOM1CASSINIS TEAM02:38:5116:56:52.5500:45:10
577528GUIGNARDDANIELM1FRIESIAN TEAM02:38:5116:54:52.6000:45:10
578721FONTANAENRICOS2TRIATHLON BERGAMO02:38:5216:56:54.0000:45:12
579894TOSOANDREAM2BLACK BART02:38:5316:59:10.3000:45:12
580269BIANCHIALBERTOM1TREVISO TRI02:38:5916:51:01.3000:45:18
581451ZARBAANTONIOM2OLIMPIC TRIATHLON02:39:0016:53:01.5500:45:19
5821018ANNONILUCAS4TESSERAMENTO GIORNALIERO02:39:0116:59:18.7000:45:20
583498BERTONICRISTIANOM2VIRTUS SENAGO02:39:0216:53:03.8500:45:21
584449BARONMORENOM4MARTINA DOGANA TRITE02:39:0616:53:07.6000:45:25
585277COINFILIPPOM3ASI TRIATHLON NOALE02:39:0716:51:09.2500:45:26
586422BOSCAROMARCOS4RUN RAN RUN T02:39:0716:53:08.4000:45:26
587414ORLANDINILUCAM2VELO SPORT CARPI02:39:0916:53:10.2000:45:28
588410MARINANDREAM2A302:39:1116:53:12.9500:45:31
589889SINIGOISTEFANOM2EASTSIDE TRIATHLON02:39:2516:59:42.1500:45:44
590895GIUGNILEONARDOM2SEA SUB MODENA02:39:2616:59:43.6500:45:45
591524BEDENDOLUCAM2FUMANE TRIATHLON02:39:3116:53:32.4000:45:50
592423NIZZOLIENRICOM1VERONA TRIATHLON KM02:39:3216:53:33.2000:45:51
5931005HADZIOSMANOVICARMINS2TESSERAMENTO GIORNALIERO02:39:3416:59:51.9000:45:54
594385BUSOALBERTOS4SBR 3ATHLON02:39:3716:53:38.2000:45:56
595607VENEZIANIFABRIZIOM4CANOTRIATHLON02:39:4016:55:41.7500:45:59
596958SPOTTILEONARDOM3S.S.D. SCHIANTARELLI02:39:4116:59:58.4000:46:00
597462DA ROLDROBERTOM1VERONA TRIATHLON KM02:39:4216:53:43.4000:46:01
598795FERRAROSALVATORES4OTRI 1 COMO02:39:4416:57:45.5000:46:03
599866GIUDICIANDREAM1OTRI 1 COMO02:39:4416:57:45.7500:46:03
600912VITELLISTEFANOM2CUNEO1198 TRITEAM02:39:4417:00:01.8500:46:03
601545CIOCCAALESSANDROS4BRESSANONE NUOTO02:39:4716:55:48.1000:46:06
602559TEDDEGIOVANNI ANTONIOM4IRONLARIOTRIATH02:39:4716:55:49.0000:46:07
603764VERSACELUIGIS4VIRTUS SENAGO02:39:4816:57:49.7500:46:07
604833CALDIROLIFABRIZIOM1TRIATHLON CREMONA ST02:39:5016:57:52.0000:46:10
605915MARIANIANDREAM2CANOTRIATHLON02:39:5117:00:09.0000:46:11
606864CALCINAFRANCESCOM1S.S.D. SCHIANTARELLI02:39:5216:57:53.6000:46:11
607846PAVESILUCAM1ROAD RUNNERS02:39:5416:57:55.2500:46:13
608458ZENNAROALBERTOM3A.S. DELFINO CHIOGGI02:39:5616:53:57.1500:46:15
609362BANFIALESSIOM1FREEZONE02:40:0216:54:03.2000:46:21
610579SARASINIDAVIDEM2KINO - MANA02:40:1116:56:12.3500:46:30
611615FEDERICIMIRCOM3KINO - MANA02:40:1116:56:12.4000:46:30
612834FARINAGUIDOM1CANAVESE TRIATHLON02:40:1116:58:12.5500:46:30
613794PULGACLAUDIOS4TRIATHLON CREMONA ST02:40:1616:58:17.3000:46:35
614504POLOMASSIMOM1VERONA TRIATHLON KM02:40:2016:54:21.3000:46:39
615888ROSTEGHINENRICOM2VENICEMARATHON CLUB02:40:2117:00:39.0000:46:41
616623FELICANIMARCOS3TRIBO02:40:2616:56:27.9500:46:46
617707PAROLOGIULIO JOSHUAS2TRYLOGY02:40:2716:58:28.1500:46:46
618438BARASSIROBERTOM1ROAD RUNNERS02:40:2816:54:29.6000:46:47
619765SUDATISTEFANOS4MELEGNANO TRIATHLON02:40:3316:58:34.9500:46:53
620594DAL CENGIOMAURIZIOM3TRI.RN.MAROSTICA02:40:3416:56:35.1000:46:53
621963SAEZ MARTINEZJULIAN MARIANOM3DDS02:40:3417:00:51.8500:46:53
622346RANZINIMASSIMILIANOM1JCT VIGEVANO02:40:3616:52:38.2000:46:55
623747CORAZZINDEVISS3A302:40:3616:58:37.7000:46:55
624593RANZATOLUIGIM3CUS TRENTO CTT02:40:3816:56:39.1500:46:57
625873VERCESIFRANCESCOM1ROAD RUNNERS02:40:3916:58:40.2000:46:58
626583MISTO'PIETROM3OTRI 1 COMO02:40:4216:56:43.8500:47:01
627927FERRARISIMONEM2S.S.D. SCHIANTARELLI02:40:4517:01:02.4500:47:04
628973DONIFEDERICOM3SBR 3ATHLON02:40:4917:01:06.6000:47:08
629539DALLE PEZZEFRANCESCOS4PESCHIERA TRI02:40:5016:56:51.6500:47:09
630978RICCHIUTOGIANLUIGIM3IRONLARIOTRIATH02:40:5217:01:09.6500:47:11
631383IZZOARMANDOS2DESENZANO TRIATHLON02:40:5416:54:55.6500:47:13
632601BASCHIROTTOGIOVANNIM2VERONA TRIATHLON KM02:41:0516:57:06.1000:47:24
633974LESTINILORISM3DUEMMECORSE02:41:1017:01:27.2000:47:29
634440UDALIROBERTOM1VERONA TRIATHLON KM02:41:1516:55:17.0000:47:35
635475CAVERZANMASSIMOM1A302:41:1816:55:19.4000:47:37
636562ANIELLOROBERTOM5ASD CNM TRIATHLON02:41:2216:57:23.3500:47:41
637592ULIVIALBERTOM3VALBOSSA TRIATHLON02:41:2416:57:25.2000:47:43
638782NICOLOSIANDREAS4TRISPORTS.IT TEAM02:41:2416:59:25.6500:47:43
639982NICOLOSIDANIELEM3SPARTANS BOLOGNA02:41:4217:01:59.3000:48:01
6401047AMBROSINITHOMASM2TESSERAMENTO GIORNALIERO02:41:4617:02:03.8000:48:05
641568GRECCHIMASSIMILIANOM2RASCHIANI TRI PAVESE02:41:4616:57:48.0000:48:06
642961MARONGIUGIAN MARIAM3ATLPULATRI02:41:5417:02:11.1000:48:13
643666FIORAVANTISIMONEM3MUGELLO TRIATHLON02:41:5416:57:55.8500:48:13
644523BERTONMATTEO PAOLOM2VERONA TRIATHLON KM02:41:5716:55:58.2500:48:16
645537TASSIALESSANDROM2TRIBO02:42:0316:58:04.9500:48:23
646474COLUSSAVALTERM4CUS UDINE02:42:0616:56:07.2500:48:25
647602CONCESADANIELEM2OTRI 1 COMO02:42:0816:58:09.8500:48:27
648586BENDINIFILIPPOM1DUEMMECORSE02:42:1016:58:11.2500:48:29
649857PASTORIANDREAM1TAPATRIATHLON TEAM02:42:1217:00:13.8500:48:31
650413FRIGERIODANIELES4OTRI 1 COMO02:42:1716:56:18.1000:48:36
651934PIGROALESSIOM2TREVISO TRI02:42:2417:02:41.1000:48:43
652549BAZZOLIADRIANOM4DESENZANO TRIATHLON02:42:2816:58:29.4500:48:47
653554BELLUZZOGIOVANNIM3FERSENTRI A.S.D.02:42:2816:58:30.0500:48:48
654490GHIDOTTISTEFANOM4STEEL T - BG02:42:3216:56:33.4000:48:51
655755MICCIROBERTOS3OXYGEN TRIATHLON02:42:3617:00:37.1000:48:55
656822CORSINIFABRIZIOM1MODENA TRIATHLON02:42:3617:00:37.9000:48:56
657274MARIANIROMEOM3VTT02:42:4116:54:43.5500:49:00
658923ROTAGIAMBATTISTAM2TRIATHLON BERGAMO02:42:4217:02:59.4000:49:01
659380LONARDIMARIO SIMONEM2FUMANE TRIATHLON02:42:4416:56:45.3000:49:03
660829BIGNOTTIANDREAM1FERALPI TRIATHLON02:42:4617:00:47.4000:49:05
661404MOROLUCAS4TREVISO TRI02:42:4816:56:49.7000:49:07
662179ZANOTTIALESSANDROM1FUMANE TRIATHLON02:42:5116:54:53.8500:49:10
6631026MONDELLIFEDERICOS4TESSERAMENTO GIORNALIERO02:42:5817:03:15.2500:49:17
664773LOCATELLIMARCOS4FRIESIAN TEAM02:42:5817:00:59.7500:49:17
6651034MORANDIMARCOM1TESSERAMENTO GIORNALIERO02:42:5917:03:16.4500:49:18
6661066VINCOLETTOMASSIMILIANOM3TESSERAMENTO GIORNALIERO02:43:0417:03:21.6000:49:23
667536DE GIORGIDANIELEM3TRITEAMPORDENONE02:43:0616:59:07.6500:49:25
668905AIROLDISTEFANOM2VIRTUS SENAGO02:43:1817:03:35.4500:49:37
669512FONTANELLIRICCARDOM3G.P. TRIATHLON02:43:2116:57:22.6000:49:40
670682MULATTIERIVALERIOS4TRI TEAM TICINO02:43:2516:59:26.7500:49:44
671388CARDAZZIDAVIDEM2RASCHIANI TRI PAVESE02:43:2716:57:28.9000:49:47
672477MASTROGIUSEPPEGIANFRANCOM2ASD CNM TRIATHLON02:43:3816:57:39.2500:49:57
673437MIGUIDIENRICOM2VERONA TRIATHLON KM02:43:4716:57:48.6500:50:06
674464CASTELLOEMILIANOM1SAI FRECCE BIANCHE02:44:0016:58:01.9000:50:20
675776ZOCCOMARCOS4GRUPPO ETHOS RUNNING02:44:0317:02:04.4500:50:22
676589MALLIAMASSIMOM2ASD CNM TRIATHLON02:44:0317:00:04.7000:50:22
6771078CAVAGNOLAMATTEOM1FREEZONE02:44:0617:04:23.5000:50:25
678384TERNOFRANCESCOS4SPORT 6402:44:0916:58:10.3000:50:28
679443TOSCANIETTOREM2TRI NOVARA02:44:0916:58:10.3500:50:28
680703LAVAGNOLIDENISS2FUMANE TRIATHLON02:44:0917:02:10.9500:50:29
681883ROSSIANDREAM2CY LASER TRI SCHIO02:44:1017:04:27.2000:50:29
682621BOTTEGAMICHELES4A302:44:1017:00:11.2500:50:29
683571BOMBINIMIRKOS4ASD CNM TRIATHLON02:44:1717:00:18.2000:50:36
684768FRANCESCONIMICHELES4CANOTTIERI SALO'02:44:1817:02:19.3500:50:37
685801MAZZUCCHELLIMATTIAS4FERSENTRI A.S.D.02:44:2817:02:29.8500:50:47
686566MASSERDOTTICARLOM3FREEZONE02:44:3117:00:32.9500:50:51
687807RANZINIDIEGOS4JCT VIGEVANO02:44:3517:02:36.3500:50:54
688758CHIAPPAFRANCESCOS3ASD CNM TRIATHLON02:44:3617:02:37.5500:50:55
689772DI FEDERICOSIMONES4G.P. QUADRIFOGLIO02:44:3717:02:38.6000:50:56
690337MANCUSOANDREAM1IL GREGGE RIBELLE02:44:3816:56:40.5500:50:57
691750MANENTIMARCOS3VENUS TRIATHLON02:44:3917:02:40.5000:50:58
692481DI MAIOANDREAM3PROPATRIA MILANO02:44:5516:58:56.5500:51:14
693724RINALDOANDREAS33K TEAM02:44:5617:02:57.9500:51:16
694575TAGLIAMONTEGENNAROM1ASD SPEZIA TRIATHLO02:44:5717:00:58.7500:51:16
695904NOBILICESARE BRENNOM2ONDA TRIATHLON02:45:0217:05:20.0000:51:22
696508SILVIARENATOM5FERALPI TRIATHLON02:45:0316:59:04.7000:51:22
6971069PANICCOFABRIZIOM3TESSERAMENTO GIORNALIERO02:45:0517:05:23.0000:51:25
698609FABIFEDERICOM2TRITALY ASD02:45:0617:01:07.7000:51:25
699669GIBERTONIPAOLOM3FERALPI TRIATHLON02:45:0817:01:09.6000:51:27
700711GUERZONISIMONES2TRIATHLON CONCESIO02:45:1217:03:13.8000:51:31
701793GATTIMATTEOS4TRI.ONDAVERDE02:45:1317:03:15.0000:51:33
702817TOSIDAVIDEM1VTT02:45:1617:03:17.5500:51:35
703530PIANAGIANFRANCOM1EUROPA SSD02:45:2017:01:21.4000:51:39
704922ROSSATODIMITRIM2MARTINA DOGANA TRITE02:45:2117:05:38.6500:51:40
705824PRADELLAANDREAM1PROPATRIA MILANO02:45:2217:03:23.6000:51:41
706124CAMPISISALVATORES3A.S.MINERVA ROMA02:45:2416:55:26.9000:51:44
707553PARONIPAOLOM2PESCHIERA TRI02:45:2417:01:26.0000:51:44
708552DE PALMAGIOVANNIS3TRI GENOVA02:45:2617:01:27.9500:51:46
709668CANEGRATISIMONES2SPORT MANAGEMENT02:45:2917:01:30.7000:51:48
710348CARNIATOMARTINOS4TREVISO TRI02:45:3216:57:34.6000:51:51
711999RITARDODOMENICOM5TEAM BIKE GUSSAGO AS02:45:3317:05:50.6500:51:52
7121012ARNOLFOPAOLOS3TESSERAMENTO GIORNALIERO02:45:3417:05:51.7000:51:53
713971STORCHIANDREAM3ATL. MDS PANARIAGROU02:45:3817:05:55.3000:51:57
714907ZECCHINATOMARCOM2CUS PADOVA UNIPD02:45:4217:05:59.3000:52:01
715194GRIGOLETTIDANIELES3PESCHIERA TRI02:45:4516:57:47.2500:52:04
716830PRIMAVERADANIELEM1VTT02:45:5017:03:51.9500:52:10
717409LAZZARINDIEGOM2OTRI 1 COMO02:45:5917:00:00.3500:52:18
718757LUOSIANDREAS3NEW BIKE02:46:0317:04:04.7000:52:22
719826BORELLALUCAM1SPORT 6402:46:0917:04:10.7500:52:28
720657SISSAGIULIANOM2ATL. MDS PANARIAGROU02:46:1317:02:14.3000:52:32
721636TRANFUGAPIERLUIGIM3VERONA TRIATHLON KM02:46:1917:02:20.7000:52:38
722844DE PIERIDAVIDEM1TAPATRIATHLON TEAM02:46:2017:04:21.2000:52:39
723921FRANZONIFERDINANDOM2DESENZANO TRIATHLON02:46:2017:06:38.0500:52:40
724452STORTIANDREAM3DDS02:46:2017:00:22.0500:52:40
7251053CRISTINIALESSANDROM2TESSERAMENTO GIORNALIERO02:46:2417:06:41.5000:52:43
726584SANDRIOSCARM1TRIMM TEAM BY LIFE L02:46:2817:02:29.3000:52:47
7271064GIUDICIALBERTOM3TESSERAMENTO GIORNALIERO02:46:3217:06:49.4500:52:51
7281020CARUCCIDOMENICOS4TESSERAMENTO GIORNALIERO02:46:3317:06:50.2000:52:52
729909LOMBARDIFRANCOM2CUS BRESCIA02:46:3317:06:50.3500:52:52
730723GHIDONIDAVIDE ETTORES3ATLETICA LAMBRO02:46:3417:04:35.9000:52:54
7311000PATIESGIANPIETROM5VENEZIA TRATHLON02:46:3517:06:52.1000:52:54
732596BUCCIVITTORIOS4POLISPORTIVA LOSA02:46:3517:02:36.5000:52:54
733567MORANIANDREAS4TAPATRIATHLON TEAM02:46:3717:02:38.9000:52:57
734678MIODRAGTODOROVS1AMATOR02:46:4017:02:41.7000:52:59
735774CASSETTAFABIOS4A.S.D. RHODIGIUM TEA02:46:4317:04:44.5000:53:02
736487ANTONINISERGIOM2FUMANE TRIATHLON02:46:5317:00:54.3000:53:12
7371042CADEIANDREAM1TESSERAMENTO GIORNALIERO02:47:0017:07:17.4500:53:19
7381021CANZIMATTEOS4TESSERAMENTO GIORNALIERO02:47:0417:07:21.7000:53:23
739604NAVAANDREAM2SPORT MANAGEMENT02:47:0617:03:07.9500:53:26
740485TADIELLOCARLO MARIAM4VERONA TRIATHLON KM02:47:1717:01:18.4000:53:36
7411035SERENIFABIOM1TESSERAMENTO GIORNALIERO02:47:2017:07:37.5000:53:39
742318BIANCHIPAOLOM3TRIATHLON CREMONA ST02:47:2116:59:23.8500:53:40
743442MENTINICOLAM1ASI TRIATHLON NOALE02:47:2317:01:24.6000:53:42
744868SANCHEZ VIDALFRANCISCO JAVIERM1CANOTTIERI SALO'02:47:2417:05:25.5000:53:43
7451055SCHMIDTFRANKM2TESSERAMENTO GIORNALIERO02:47:2517:07:42.3000:53:44
7461067MOTTAMAURIZIOM3TESSERAMENTO GIORNALIERO02:47:2717:07:44.2000:53:46
7471052FRATTINIMASSIMOM2TESSERAMENTO GIORNALIERO02:47:2717:07:44.6000:53:46
748932PANACEALUCAM2IN SPORT SRL SSD02:47:2817:07:45.1000:53:47
749516FIORIOGIANLUCAM2VERONA TRIATHLON KM02:47:3317:01:34.4000:53:52
750802SPIRITODAVIDES4DOCTORBIKE TRIATHLON02:47:4017:05:41.7000:53:59
751496CAPRAPAOLOS3FERALPI TRIATHLON02:47:4017:01:42.0500:54:00
752786TURTURROSIMONES4MELEGNANO TRIATHLON02:47:4117:05:42.2500:54:00
753605BADAPAOLOM3TRI TEAM BRIANZA02:47:4617:03:47.1000:54:05
754582GUIDIGABRIELEM1VENEZIA TRATHLON02:47:5217:03:53.9000:54:12
755519WURMENRICO VITTORIOS4TRI EVOLUTION02:48:1117:02:12.5000:54:30
7561076PATURZOMICHELE RODOLFOM2NLF02:48:1217:08:30.0000:54:32
757520FIORENTINIANDREAS4PESCHIERA TRI02:48:1817:02:19.6500:54:37
758743GIUDICILUCA DANTES3SNEF SSD A R.L.02:48:1917:06:20.9500:54:39
759551PIAZZASILVIOM2HAPPY RUNNER CLUB02:48:2417:04:25.1000:54:43
760208VENTURAFABIO FRANCESCOM1TRAGUARDO VOLANTE02:48:4517:00:47.3000:55:04
761599SUSTACLAUDIOM2TRIATHLON CREMONA ST02:48:4917:04:51.0500:55:09
762880MONETTIALFREDOM2SBR 3ATHLON02:48:5017:09:07.4000:55:09
763901CAROZZIFEDERICOM2TP ACADEMY TEAM02:48:5717:09:14.9000:55:17
764618LAZZARINIOTTORINOM4S.S.D. SCHIANTARELLI02:49:0317:05:04.1000:55:22
765588VENERONICARLOM1COOPERATORI02:49:0317:05:04.7000:55:22
7661058CANUROBERTOM2TESSERAMENTO GIORNALIERO02:49:0417:09:21.4500:55:23
767629MORESCHIFABIOM2CALYPSO TRIATHLON02:49:0517:05:06.8000:55:24
768717CORNINIGUGLIELMOS2BLACK BART02:49:0817:07:10.0000:55:28
769591CASADEI SANTUCCIGIANPAOLOS4SWIM ACADEMY THREE02:49:1417:05:15.6000:55:33
770835LODISTEFANOM1LC BRUGHERIO 202:49:1717:07:18.1000:55:36
771986UNTERHOFERERWINM4G.S. BARDOLINO02:49:2017:09:38.0000:55:40
772495MIRABELLACLAUDIOM3MMTT02:49:2417:03:25.4000:55:43
773930NADAILUCAM2A302:49:2717:09:44.8500:55:46
774431MESSERSI'FEDERICOM1DINAMO TRIATHLON02:49:3517:03:36.4500:55:54
775745BALLERINILORISS3FERALPI TRIATHLON02:49:3517:07:37.0000:55:55
776957VERONIGUIDOM3A.S.D. SESSANTALLORA02:49:3817:09:55.9000:55:58
777799SANTANIELLOCIROS4TRIMM TEAM BY LIFE L02:49:3917:07:41.0000:55:59
778818ROTASIMONEM1ATLETICA MANARA02:49:4517:07:46.3500:56:04
779608BERTASIMAUROM4TRIATHLON CONCESIO02:49:4617:05:47.4500:56:05
780606PEISINOALESSANDROM1ASD SPEZIA TRIATHLO02:49:5117:05:52.3000:56:10
781738PACCHIOLISTEFANOS3PROPATRIA MILANO02:50:0017:08:01.3000:56:19
7821031SIMONETTIFABIOS4TESSERAMENTO GIORNALIERO02:50:0117:10:18.7500:56:20
783746PORTESANROBERTOS3A.S.D. RHODIGIUM TEA02:50:0317:08:04.7500:56:22
784590AVANCINIGIANMATTEOM3CASTELLI ROMANI TRI02:50:0617:06:07.3000:56:25
7851063BONFANTILUCAM3TESSERAMENTO GIORNALIERO02:50:0717:10:24.5000:56:26
786769ONOFRIMATTIAS4CY LASER TRI SCHIO02:50:2417:08:25.2500:56:43
787916BEGHINALBERTOM2IRONLARIOTRIATH02:50:2917:10:47.0500:56:49
788533SCARPIGIANLUCAM1VENEZIA TRATHLON02:50:3517:06:36.4000:56:54
789877RICCITHOMASM2TRAGUARDO VOLANTE02:50:3917:10:57.0000:56:59
790848GARZONE BALBONILUCA JAVIERM1DE RAN CLAB02:50:4117:08:42.9500:57:01
791956GALBIATILUIGIM3DE RAN CLAB02:50:4417:11:02.0000:57:04
792565AMODIOLUIGIM1TREVISO TRI02:50:4617:06:47.4500:57:05
7931027CAOBELLICLAUDIOS4TESSERAMENTO GIORNALIERO02:50:4817:11:05.4500:57:07
794785BERTONAZZIIGORS4RASCHIANI TRI PAVESE02:51:0817:09:09.1500:57:27
795854REVERSIIVANM1TRIATHLON MDC02:51:1117:09:12.3500:57:30
796620MAZZONIFRANCESCOM2CANOTRIATHLON02:51:2717:07:28.5000:57:46
797650BELLOTTICARLOM4DESENZANO TRIATHLON02:51:2917:07:30.8000:57:48
798990BOVOSTEFANOM4SBR 3ATHLON02:51:3917:11:57.0000:57:59
799874VALACCARODOLFOM1ALMOSTHERE ASD02:51:4317:09:44.6000:58:02
800809FRANZOIMATTEOS4SBR 3ATHLON02:51:4517:09:46.8000:58:04
801977SCARPELLINIIVANOM3POLISPORTIVA LOSA02:51:5517:12:12.4000:58:14
802630ARIENTIDAVIDES4VTT02:51:5817:08:00.0000:58:18
803979WIESERRUDOLFM3G.S. BARDOLINO02:51:5917:12:17.0000:58:19
804831LIONETTINICOLAM1VIRTUS SENAGO02:52:0417:10:05.1000:58:23
8051073MOOREPATRICKM4TESSERAMENTO GIORNALIERO02:52:3117:12:48.2500:58:50
806689METZENGERDM4POST SV NÜRNBERG TRIATHLON02:53:0217:09:03.5500:59:21
807803PINTERALBERTOS4AVIO TRIATHLON02:53:0217:11:04.0000:59:22
808555DE ROSSIVLADIMIROM5SBR 3ATHLON02:53:0617:09:07.3000:59:25
8091043LEICHTLEANDREASM1TESSERAMENTO GIORNALIERO02:53:1017:13:27.2500:59:29
810535GUIZZIROBERTOM4TRIATHLON CONCESIO02:53:1117:09:12.9500:59:31
811494MARCINNO'PAOLOM1PROPATRIA MILANO02:53:2217:07:23.5500:59:41
812631BELLIALBERTOM3IRONBIELLA02:53:2317:09:24.8500:59:42
813887DIOTTICRISTIANO FRANCESCOM2TRITALY ASD02:53:3117:13:48.9500:59:51
814938BERTOLINOPAOLOM2VIRTUS SENAGO02:53:3817:13:55.2000:59:57
815651VALSECCHIMASSIMO GIOVANNIM2SARONNO TRIATHLON02:53:4417:09:46.0501:00:04
816550BELLOCHRISTIANM1CANOTTIERI SALO'02:53:4817:09:49.6501:00:07
8171054MORANDIMATTEOM2TESSERAMENTO GIORNALIERO02:53:4917:14:07.0501:00:09
818580LAVEZZIANDREAM1FUMANE TRIATHLON02:54:1617:10:18.0001:00:36
819753CAVASINPAOLOS3A302:54:1917:12:20.9501:00:39
820984CASTELLIMICHELEM3T'N'T SSD02:54:2117:14:38.6501:00:40
821945TAGLIORETTIRAFFAELEM2TRI TEAM BRIANZA02:54:2317:14:40.1001:00:42
822933STEFANIDIMITRIM2RARI NANTES VALSUGAN02:54:2717:14:44.4001:00:46
823546DERTONNICOLAM2A302:54:3317:10:34.6001:00:52
824705OLIVAGIULIOS2ZEROTRENTA TRIATHLON02:54:3417:12:35.6501:00:53
825884PAVANANDREAM2SSD NPV02:54:3517:14:52.1501:00:54
826578BOCCHIOLAALESSANDROM1SKY LINE NUOTO02:54:4517:10:46.6501:01:04
827626GRAMAZIOPAOLO ANTONIOM4RASCHIANI TRI PAVESE02:54:5417:10:55.7501:01:13
828859COIANTEFABRIZIOM1PESCHIERA TRI02:54:5917:13:00.4001:01:18
829997LA GRECAALBERTOM4SBR 3ATHLON02:55:0617:15:23.1001:01:25
830964MOSCALORENZOM3ZEROTRENTA TRIATHLON02:55:1017:15:27.7501:01:29
831778FALABELLADANIELES4TAPATRIATHLON TEAM02:55:1217:13:13.3501:01:31
832808COMPARELLIDAVIDES4HAPPY RUNNER CLUB02:55:2217:13:23.2001:01:41
833643PIZZEGHELLALUCAM3PESCHIERA TRI02:55:3117:11:32.3001:01:50
8341051VACCARILEONARDOM2TESSERAMENTO GIORNALIERO02:55:3617:15:53.5501:01:55
835548GIANNONEGIUSEPPES4PROPATRIA MILANO02:55:4617:11:47.4501:02:05
836658MASONANDREAS4SBR 3ATHLON02:56:0117:12:02.1001:02:20
837640DE BERNARDIEUGENIOM4JCT VIGEVANO02:56:0517:12:07.0001:02:25
838323PASSARINISTEFANOM1VERONA TRIATHLON KM02:56:3517:08:37.5001:02:54
8391041BRANCA VERGANOLUIGIM1TESSERAMENTO GIORNALIERO02:56:3817:16:55.5501:02:57
8401065DANSIMONEM3TESSERAMENTO GIORNALIERO02:56:4417:17:01.3001:03:03
8411074AMBROSIFRANCOM4TESSERAMENTO GIORNALIERO02:56:4617:17:03.8001:03:05
842624CREMAMARCOS4PESCHIERA TRI02:56:5917:13:00.5001:03:18
843959ZANFRINISERGIOM3SARONNO TRIATHLON02:57:0117:17:18.1001:03:20
844574SARACCOUMBERTOM2TREVISO TRI02:57:0417:13:05.7501:03:23
845570BATTAGLIAFRANCESCOM2ALMOSTHERE ASD02:57:1317:13:15.0001:03:33
846509DIOTALLEVISIMONEM2HAPPY RUNNER CLUB02:57:1717:11:18.8001:03:36
847906BOMBELLIMASSIMILIANOM2MELEGNANO TRIATHLON02:57:1817:17:36.0001:03:38
848541ROSSIPAOLOM66.15 TRI02:57:1917:13:20.9001:03:39
849925FAVAROGIORGIOM23K TEAM02:58:1617:18:33.7501:04:35
850856CATTANEOMATTEOM1FERALPI TRIATHLON02:58:2617:16:27.5501:04:45
851652CASALELUCAM4CUS PADOVA UNIPD02:58:2817:14:29.3001:04:47
852988SCHIABELTIZIANOM4EROI DEL PIAVE02:58:3917:18:56.5001:04:58
853981PERISSINOTTOCLAUDIOM36.15 TRI02:58:4617:19:03.2001:05:05
854869PAVIAGIANLUCAM1FRIESIAN TEAM02:58:4917:16:50.2001:05:08
855611MARCHESIFABIOM1GRUPPO ETHOS RUNNING02:58:5417:14:55.3501:05:13
8561045FUCCISTEFANOM1TESSERAMENTO GIORNALIERO02:59:0617:19:23.3001:05:25
857928GUAZZI SCAVONERICCARDOM2TRIATHLON BERGAMO02:59:0917:19:26.3001:05:28
858985LOCATIMARCO EGIDIOM3VIRTUS SENAGO02:59:3217:19:49.4001:05:51
859708ZAGGIAALBERTOS2A.S.D. RHODIGIUM TEA02:59:4317:17:44.9501:06:03
8601044CARIOTISALVOM1TESSERAMENTO GIORNALIERO02:59:5117:20:08.8001:06:10
8611070ORTONACARLOM4TESSERAMENTO GIORNALIERO03:00:0717:20:24.5001:06:26
8621072RANCATIGIOVANNIM4TESSERAMENTO GIORNALIERO03:00:0717:20:24.5001:06:26
863661IURCOTTAPAOLOM2ROAD RUNNERS03:00:1717:16:18.1001:06:36
864850D'ALESSIODAVIDEM1TRIMM TEAM BY LIFE L03:00:1917:18:20.6501:06:38
865662RADAELLIDAVIDEM1TRI TEAM BRIANZA03:00:2117:16:23.0001:06:41
866787CARROZZOFRANCESCOS4PROPATRIA MILANO03:00:3417:18:35.7001:06:53
867647TERZIFULVIOS4SSD NPV03:00:5217:16:53.4501:07:11
868800SERRASIMONES4TEAM BIKE GUSSAGO AS03:00:5817:18:59.6001:07:17
8691049DAL PRETEADRIANOM2TESSERAMENTO GIORNALIERO03:00:5917:21:17.0001:07:19
870664BETTUCCHIGIANNI GIUSEPPEM6SAI FRECCE BIANCHE03:01:0217:17:03.4501:07:21
871612COCIANCICHMASSIMOM2FEDERCLUBTRIESTE03:01:0717:17:08.8001:07:26
872878ERBAFABIOM2SPORT MANAGEMENT03:01:2117:21:38.1001:07:40
873572COLLAMORENOM1REACTION03:01:2417:17:25.3001:07:43
874816ALFIERIMARCOM1TOTAL FITNESSTRI03:01:3517:19:36.6001:07:54
875775SCORTAGIORGIOS4IN SPORT SRL SSD03:01:4117:19:42.6501:08:00
876845RAVAGNANDARIOM1A.S. DELFINO CHIOGGI03:01:4317:19:44.8501:08:02
8771057BELLAMOLIALBERTOM2TESSERAMENTO GIORNALIERO03:01:5017:22:07.8001:08:09
878676SPAMPINATOCARLOM2PPRTEAM03:02:0117:18:02.6001:08:20
879507REGGIANICARLOM2MB TRIATHLON03:02:0517:16:06.4501:08:24
880603LANTERNAEMANUELEM2A.S.D. CANOTTIERI TI03:02:0817:18:09.3001:08:27
881542CARFI'FILIPPOM3ASD CNM TRIATHLON03:02:1917:18:20.4501:08:38
882798LISSIEMANUELE ANGELOS4TAPATRIATHLON TEAM03:02:3517:20:36.8501:08:54
883649ROSSINIPIERLUIGIM4CUS BRESCIA03:02:4617:18:47.1001:09:05
884882PICCIONIFABIOM2PASSO CAPPONI03:02:5117:23:08.7001:09:10
885839PENATIRICCARDOM1DDS03:02:5417:20:55.2501:09:13
886625VILLAGIUSEPPEM2STEEL T - BG03:03:1317:19:14.7001:09:32
887893TALENTILORENZOM2MMTT03:03:2917:23:46.3001:09:48
888828CARONEANDREAM1SBR 3ATHLON03:03:2917:21:30.4001:09:48
889946NARDOANTONIOM3ASI TRIATHLON NOALE03:03:3317:23:50.4501:09:52
8901001CHIRICOMAURIZIOM7PPRTEAM03:04:0317:24:20.3001:10:22
891671PRESEGLIOMASSIMOM5TEAM BIKE GUSSAGO AS03:04:4117:20:42.1501:11:00
892641SQUILLONIPAOLOM3DERMOVITAMINA B) SID03:05:0617:21:07.7501:11:25
893627BEGHININICOLAM1VERONA TRIATHLON KM03:05:2217:21:23.7001:11:41
8941032MUNTONIMATTEOM1TESSERAMENTO GIORNALIERO03:05:2517:25:42.9001:11:45
895987BROCCAMARIOM4SPORT 6403:05:2617:25:43.9501:11:46
896339DOTTOIVANOM2TREVISO TRI03:05:2717:17:29.2001:11:46
897622SEBASTIANIEUGENIOM6FANO+SPORT TRIATHLON03:05:4117:21:42.8001:12:00
898813COLOMBOALESSANDROM1TAPATRIATHLON TEAM03:05:5217:23:54.0001:12:12
899638MODENAMARTINOM2VERONA TRIATHLON KM03:05:5817:22:00.0001:12:18
900953BELLINFEDERICOM3SBR 3ATHLON03:06:1717:26:34.3501:12:36
901840ZEMELLANICOLAM1SBR 3ATHLON03:06:2717:24:28.8001:12:46
902639CERTOADALBERTOM4BUSTO ARSIZIO A.R.C.03:06:4717:22:48.9001:13:07
903581MORIALESSANDROM2CANOTTIERI SALO'03:06:5717:22:58.3001:13:16
904919BATTISTONMATTEOM2TRYLOGY03:06:5917:27:16.5501:13:18
905529ANDREONISIMONEM2A.S.D. CANOTTIERI TI03:07:2417:23:25.4501:13:43
9061039BOZZINILUCAM1TESSERAMENTO GIORNALIERO03:07:3517:27:53.0001:13:55
907648VERDOLINILUCAM4FUMANE TRIATHLON03:07:4217:23:43.5501:14:01
908597CAEMSTEFANOM2MMTT03:07:4517:23:46.1501:14:04
909659DURANTESTEFANOM3MMTT03:07:4517:23:46.3001:14:04
910585BELLONIPIETRO ANTONIOM3MMTT03:07:4517:23:46.4001:14:04
911670BELTRAMINIMARCO GIOVANNIM2SPORT MANAGEMENT03:07:4817:23:49.4001:14:07
912875ROSSONI GEROSAMARCOM2TRIATHLON BERGAMO03:08:1017:26:11.8501:14:29
913885RONDENAGIANLUCAM2TAPATRIATHLON TEAM03:08:1217:28:29.7501:14:31
914995PULGAMAURIZIOM4PROPATRIA MILANO03:08:2217:28:39.1501:14:41
915896TARTAGLIONEANTONIOM2A.S.D. VARESE TRIATH03:08:4817:29:06.0501:15:08
9161014GIOACHINANDREAS3TESSERAMENTO GIORNALIERO03:08:5717:29:14.9501:15:17
917996ZERBOLAROBERTOM4CANAVESE TRIATHLON03:09:0517:29:22.3001:15:24
918635MORANDIROBERTOM4TRI TEAM BRIANZA03:09:2217:25:23.9501:15:42
919935FULGENZIGIANMARIAM2MODENA TRIATHLON03:09:3417:29:52.0001:15:54
920677ALLODIFILIPPOM4KINO - MANA03:09:3417:25:36.0501:15:54
921968PERISSINOTTOANTONIOM3TRIBU'03:09:3717:29:55.0501:15:57
922994VILLAFABIO STEFANOM4TRI TEAM BRIANZA03:09:5417:30:11.7501:16:13
923931NATALEGIOVANNIM2OTRI 1 COMO03:09:5717:30:14.3501:16:16
924663SIMONATTODANILOM5TRIATHLON CAORLE03:09:5817:25:59.5501:16:17
9251059MARCOPEREZM2TESSERAMENTO GIORNALIERO03:10:5917:31:16.8501:17:18
926645ZANINIFABIOM4EUROPA SSD03:11:0017:27:01.2501:17:19
927653MARCHESIALBERTOM8DE RAN CLAB03:11:0017:27:01.5501:17:19
928902DORIALUCAM2SBR 3ATHLON03:11:0817:31:25.3001:17:27
9291056GIANNETTONIMARCOM2TESSERAMENTO GIORNALIERO03:11:1717:31:34.1501:17:36
930908CRESCIMBINIORLANDOM2VIADANA TRIATHLON03:11:3017:31:47.2501:17:49
931949BELLAVITAPAOLOM3VERDE PISELLO GROUP03:11:3517:31:52.8001:17:54
932675ZORZIMATTEOM3FERALPI TRIATHLON03:11:4117:27:42.7001:18:00
933960DELL'ORTOVITTORIOM3VTT03:11:5717:32:14.8501:18:16
934646DA RODDALUCIOM3A303:12:1417:28:16.0001:18:34
935577GAIGAMARCOM2VERONA TRIATHLON KM03:12:3717:28:38.2501:18:56
936688BIENIECKIJACEKM3BINIOLS TEAM03:13:0417:29:05.3501:19:23
937654BARZAGHIANDREAM2TRI TEAM BRIANZA03:13:1517:29:16.3501:19:34
938858VODINIMARCOM1TRITALY ASD03:13:2217:31:23.2001:19:41
939655OPIPARIENRICOM7RHO TRIATHLON CLUB03:14:2317:30:24.4501:20:42
940879CARLESIGIULIANOM23K TEAM03:14:2517:34:42.7001:20:44
941892ZANETTILORISM23K TEAM03:14:2517:34:42.8501:20:44
9421075PREISSERJEAN CLAUDEM5TESSERAMENTO GIORNALIERO03:14:3517:34:52.4001:20:54
943660BERTOLAZZILUIGIS4CY LASER TRI SCHIO03:14:5617:30:57.6001:21:15
9441068POMATAROBERTOM3TESSERAMENTO GIORNALIERO03:15:0217:35:19.9501:21:22
945792BELLINFEDERICOS4TRIBU'03:15:0917:33:10.2001:21:28
946632STRAMARESERGIOM4A303:15:0917:31:10.5001:21:28
947911CERRIALESSANDROM2FERALPI TRIATHLON03:15:1317:35:30.7001:21:32
9481030ORSENIGOEMILIO GIULIOS4TESSERAMENTO GIORNALIERO03:16:5117:37:08.3001:23:10
949613RIEDMANNBERNDM2KSV TRIATHLON03:17:0817:33:09.2001:23:27
950781BIGHIANISTEFANOS4TAPATRIATHLON TEAM03:17:1317:35:14.2001:23:32
951941BIAGINIANDREA PAOLOM2VERDE PISELLO GROUP03:18:3017:38:47.7001:24:49
952819DE ROSSIPAOLOM1TAPATRIATHLON TEAM03:18:5417:36:55.6501:25:13
953637GIOVONISALVATORES4TRIATHLON BERGAMO03:19:4517:35:46.5001:26:04
9541022CAPPELLERICHRISTIANS4TESSERAMENTO GIORNALIERO03:20:5017:41:07.7501:27:09
955667BARBIMATTEOM1CY LASER TRI SCHIO03:21:4317:37:44.9001:28:03
956665PELLAVITTORIOM2TRIATHLON CREMONA ST03:22:1117:38:12.5501:28:30
957673CARENZIONATALEM5RASCHIANI TRI PAVESE03:22:2117:38:22.3501:28:40
958672LOTTIEZIOM5VERONA TRIATHLON KM03:23:2617:39:27.5501:29:45
9591061AZZETTIVLADIMIROM2TESSERAMENTO GIORNALIERO03:25:3217:45:49.2001:31:51
9601050PARATICOGUIDOM2TESSERAMENTO GIORNALIERO03:25:4017:45:57.8501:31:59
961992SANNARENATOM4NO LIMITS SPORT03:27:0517:47:22.5001:33:24
962993CECEROCLAUDIOM4ASD CNM TRIATHLON03:27:5117:48:08.5501:34:10
9631033TAMPELLAMAUROM1TESSERAMENTO GIORNALIERO03:28:2117:48:38.3001:34:40
9641029CASEROLORENZOS4TESSERAMENTO GIORNALIERO03:29:4217:49:59.3501:36:01
965573ZIVIANIGIUSEPPEM4FUMANE TRIATHLON03:38:0317:54:04.1501:44:22
966674BRAMBILLASIMONEM2VTT03:46:0718:02:08.6501:52:26

OLIMPICO – Femminile

POSIZIONEPETTORALECOGNOMENOMECATEGORIANOME TEAMTEMPORA ARRIVODISTACCO
11182SEREGNIBIANCAJURASCHIANI TRI PAVESE02:15:0716:15:09.9000:00:00
21179FORSTNERRENATEM1DEUTSCHE TRIATHLON UNION02:16:4716:16:49.9500:01:40
31103DOGANAMARTINAS4MARTINA DOGANA TRITE02:17:2716:17:29.7500:02:20
41177DORNAUERLISA-MARIAS2WAVE TRI TEAM TS WÖRGL02:19:4816:19:50.3000:04:41
51105MONACCHINIELISAS1DERMOVITAMINA B) SID02:21:3616:21:38.9000:06:29
61101SERENAEVAS2333 TRIATHLON ASD02:22:0416:22:06.1000:06:57
71184RIGONIGIORGIAJUTRIATHLON 7C ASD02:22:2816:22:30.8000:07:21
81112MAULEROBERTAS4VERONA TRIATHLON KM02:24:1016:24:12.1000:09:03
91109DALLA TORELISAS4PROPATRIA MILANO02:24:2016:24:22.5500:09:13
101104CISOTTOGLORIAS3K3 CREMONA02:24:3216:24:34.2000:09:25
111110CARRADOREMARTAS2G.S. ALPINI VICENZA02:25:3316:25:36.0000:10:27
121117MANZOLINAS2CHIMERA TRIATHLON02:25:3616:25:38.4000:10:29
131199SPERONISARAS3A.S.D. VARESE TRIATH02:25:5616:25:58.1000:10:49
141195COSTAMAGNACHIARAS3TEAM DISANTO COACHIN02:26:2316:26:25.2000:11:16
151108ZAVANONEILARIAS4WOMAN TRIATHLON ITAL02:26:4416:26:46.8000:11:37
161107VALENTIARIANNAS2RASCHIANI TRI PAVESE02:26:4616:26:48.9500:11:39
171115THOMASLAURAM2TREVISO TRI02:27:1916:27:21.5000:12:12
181186RAINOLTERFEDERICAS170702:27:3016:27:32.6000:12:23
191116BERTELLEANNALISAS2PADOVANUOTO TRI02:27:4016:27:42.3500:12:33
201111DAVOLIOBARBARAM1WOMAN TRIATHLON ITAL02:27:5216:27:54.5500:12:45
211123PIOLANTIGIULIAS3PORTA SARAGOZZA BO02:28:1316:28:15.5000:13:06
221122DEGIUGNOALESSANDRAM2IRONBIELLA02:28:5916:29:01.7000:13:52
231129PACCHETTIANNAM1WOMAN TRIATHLON ITAL02:30:5816:31:00.6000:15:51
241188BRAMBILLABIANCAS1OXYGEN TRIATHLON02:31:0016:31:02.3500:15:53
251248WHITEJACQUELINEM4A.S.D. TORINO TRIATH02:31:0516:31:07.5000:15:58
261190MIORIALBERTAS2FERSENTRI A.S.D.02:31:1516:31:17.6000:16:08
271114GOLDONIPAOLAM3DESENZANO TRIATHLON02:31:4316:31:45.2000:16:36
281118DEL GRANDEILARIAM2OXYGEN TRIATHLON02:31:5416:31:56.6000:16:47
291119MORETTOCHIARAS1A302:32:0716:32:09.2000:17:00
301126MANFE'FRANCESCAM1REACTION02:32:1116:32:13.3500:17:04
311131CARRETTINMONICAM3ASI TRIATHLON NOALE02:32:4216:32:44.8000:17:35
321219BRENTAROLLISARAM1VERONA TRIATHLON KM02:32:5216:32:54.3500:17:45
331125MARTINOSTEFANIAM2ASD CNM TRIATHLON02:33:2916:33:31.2000:18:22
341181VERONESIREBECCAJUCOOPERATORI02:34:5816:35:00.2000:19:51
351243PERGOLAMIRELLAM3SBR 3ATHLON02:34:5816:35:00.3000:19:51
361127MAROCCIELENA EMILIAM3ASD CNM TRIATHLON02:35:0616:35:08.6000:19:59
371120SCHIEVENINSERENAS3A302:35:1716:35:19.4000:20:10
381209CRETETSEVERINES4NJOY TRI VA02:35:2716:35:29.1000:20:20
391133ZAMPETTILUANAS2CANDIA TRIATHLON02:35:3516:35:37.9000:20:28
401132STAVLAVIRNAM4PADOVA TRIATHLON02:35:4216:35:44.6500:20:35
411121MOROSINCLAUDIAM1ASI TRIATHLON NOALE02:36:2216:36:24.8000:21:15
421212KRAUSEJETTE ANDREAM1OXYGEN TRIATHLON02:36:3916:36:41.1500:21:32
431124SERGONMAURAM1POOL SPORT02:36:4116:36:44.0000:21:35
441140ZINGERLEJOHANNAS3KSV TRIATHLON02:36:4616:36:49.0000:21:40
451215GHEZZIMARIACRISTINAM1TRI TEAM BRIANZA02:37:1516:37:17.9500:22:08
461135CABIANCAANNAS3PESCHIERA TRI02:38:0216:38:04.7500:22:55
471223RIGODENISE RITAM2CY LASER TRI SCHIO02:38:2716:38:29.1000:23:20
481249GALATOELENAS2TESSERAMENTO GIORNALIERO02:39:4016:39:42.6000:24:33
491128VELUSCEKLAURAS2CY LASER TRI SCHIO02:40:1516:40:17.6000:25:08
501251BISCOTTIALESSANDRAS3TESSERAMENTO GIORNALIERO02:40:2216:40:24.3000:25:15
511143BORTOLAMIFRANCESCAS2PADOVA TRIATHLON02:40:4616:40:48.6500:25:39
521137RAVAROTTOFRANCESCAM1OXYGEN TRIATHLON02:40:4716:40:50.0000:25:41
531255MEMMOLUISA CRISTINAM3RASCHIANI TRI PAVESE02:41:1616:41:18.5000:26:09
541149RIGHILIDIAS4KINO - MANA02:41:2516:41:27.2000:26:18
551222PELATIMICHELAM2KINO - MANA02:41:3916:41:42.0000:26:33
561157SARTORIANTONELLA PAOLAM2AIRONE TRIATHLON02:41:5316:41:55.8000:26:46
571141PELIZZARIALESSANDRAM1FREEZONE02:42:2716:42:29.7000:27:20
581130PAGGETTAKATIAM1TRIBU'02:43:1516:43:17.2500:28:08
591147FAE'ANNALISAS4WOMAN TRIATHLON ITAL02:43:2116:43:23.5500:28:14
601138CAPOVILLAVALENTINAS4PADOVA TRIATHLON02:43:4116:43:43.3000:28:34
611227BASSOVIVIANAM2ASI TRIATHLON NOALE02:43:5716:43:59.6000:28:50
621187CARRAROALESSIAS1SBR 3ATHLON02:45:2216:45:24.1000:30:15
631136NORCIAFELICITA MARIAM2RASCHIANI TRI PAVESE02:45:3316:45:35.4000:30:26
641228MOROSINIVALERIAM2TRYLOGY02:45:3516:45:37.9500:30:28
651144COGOSTEFANIAS4RASCHIANI TRI PAVESE02:46:0316:46:05.7500:30:56
661152GIUSTALAURAM2A.S.D. TORINO TRIATH02:46:0616:46:08.2000:30:59
671211PALBERTIFEDERICAM1EROI DEL PIAVE02:46:2116:46:23.4000:31:14
681218GUARINIELLOROSSELLAM1MB TRIATHLON02:46:2816:46:30.6000:31:21
691146GHEDINROBERTAS4SPARTANS BOLOGNA02:47:0316:47:05.9500:31:56
701134CASTELLOGLORIAS1WOMAN TRIATHLON ITAL02:47:0716:47:09.3000:32:00
711250ROSSIMARTAS3TESSERAMENTO GIORNALIERO02:47:0716:47:09.7500:32:00
721168COSTANTINCRISTINAM1WOMAN TRIATHLON ITAL02:47:1916:47:21.5000:32:12
731217MILEOSARAM1RHO TRIATHLON CLUB02:47:4816:47:50.7000:32:41
741202PETROLITOLAURAS4TRI GENOVA02:48:0916:48:12.0000:33:03
751139MORRISNICOLAM2WOMAN TRIATHLON ITAL02:48:3016:48:32.8000:33:23
761169CHIARINIMIRIAMM2DESENZANO TRIATHLON02:48:3716:48:39.6000:33:30
771191CARBONEJESSICA SILVIAS2RASCHIANI TRI PAVESE02:48:5816:49:00.8500:33:51
781226FORTUNAGRAZIELLAM2A302:49:0916:49:11.4500:34:02
791189CACCINELENAS2EROI DEL PIAVE02:49:2616:49:28.5500:34:19
801244MACCHIPAOLA PIERAM3BUSTO ARSIZIO A.R.C.02:50:0316:50:05.8500:34:56
811145SALEMIANTONELLAM3WOMAN TRIATHLON ITAL02:50:0916:50:11.9000:35:02
821155PALUMBOCLAUDIAM1PROPATRIA MILANO02:50:1216:50:15.0000:35:06
831224ROSSIKATIAM2LC BRUGHERIO 202:51:0016:51:02.5000:35:53
841161NALECRISTINAM3FUMANE TRIATHLON02:51:3516:51:37.7000:36:28
851150PANZERIILARIAS3PROPATRIA MILANO02:51:5116:51:53.1500:36:44
861148GSCHWENTERMELANIE MAGDALENAS4TRI ALTO ADIGE02:51:5916:52:01.4500:36:52
871208MARINILORENZAS4A.S.D. TORINO TRIATH02:52:4516:52:48.0000:37:39
881174MAREGADANIELAM2EASTSIDE TRIATHLON02:52:4616:52:48.2000:37:39
891159GIOPPOSUSANNAM2MARTINA DOGANA TRITE02:52:5816:53:00.6500:37:51
901196ROMEILAURAS3ONDA TRIATHLON02:53:1616:53:18.5000:38:09
911160GARAMPELLISTEFANIAM3ASD CNM TRIATHLON02:54:4516:54:47.3500:39:38
921201MARCONSILVIAS4OTRI 1 COMO02:54:5916:55:01.1000:39:52
931165FERRARIKATIAM1VERONA TRIATHLON KM02:55:4616:55:48.5500:40:39
941171STORCHI INCERTISILVIAM2COOPERATORI02:55:4916:55:51.3000:40:42
951221VECCHIROBERTAM2TRI TEAM BRIANZA02:55:5116:55:53.2500:40:44
961239BECCALOSSIROSAM3TEAM BIKE GUSSAGO AS02:56:1116:56:13.6500:41:04
971172MAUROTIZIANAM1TRITALY ASD02:56:2216:56:24.3000:41:15
981206BERTELLIBARBARAS4TEAM BIKE GUSSAGO AS02:56:4316:56:45.5000:41:36
991164PIZZIPAOLAM3RASCHIANI TRI PAVESE02:57:2316:57:25.7000:42:16
1001246FILIPPISTEFANIAM3TREVISO TRI02:57:4616:57:48.7500:42:39
1011151DOTTIRAFFAELLAM1PROPATRIA MILANO02:58:0116:58:03.8000:42:54
1021192FELTRINJENNYS2EROI DEL PIAVE02:59:1816:59:20.3000:44:11
1031154RICCO'ELENAM3ONDA TRIATHLON03:00:5817:01:00.5500:45:51
1041175BERETTACRISTINAM3TRIATHLON BERGAMO03:01:1517:01:17.1000:46:08
1051213BORTOLATOMARIKAM1SBR 3ATHLON03:01:5017:01:52.9000:46:43
1061254ENGEL RICAURTEELIZABETHM2DDS03:02:2717:02:30.0000:47:21
1071156SCANDALETTICHIARAM2ALBA TRI03:02:4817:02:51.0500:47:42
1081170OLIVOMANUELAM2TRI TEAM BRIANZA03:03:0017:03:02.6000:47:53
1091240DONZIMARINAM3RHO TRIATHLON CLUB03:04:1517:04:17.2000:49:08
1101230LODIBARBARAM2VTT03:05:0017:05:02.7500:49:53
1111194BERTOLAZZIGIULIAS3TEAM BIKE GUSSAGO AS03:05:3717:05:39.8500:50:30
1121234MARZELLALAURAM2FUMANE TRIATHLON03:05:5217:05:54.8000:50:45
1131178RAUCHSANDRAS2POST SV NÜRNBERG03:06:1617:06:18.9500:51:09
1141225PALTRINIERISIMONAM2PROGETTO VISTA TRIAT03:06:5417:06:56.9000:51:47
1151232GALLIELISABETTAM2VIRTUS SENAGO03:08:1017:08:12.7000:53:03
1161238MOZZATOALESSANDRAM3SBR 3ATHLON03:08:3517:08:37.4000:53:28
1171216PIVACHIARAM1SPARTANS BOLOGNA03:08:5617:08:58.7000:53:49
1181207PEZZOLAALESSIAS4S.S.D. SCHIANTARELLI03:09:5817:10:00.3000:54:51
1191220RIPARISILVIA TERESAM2WOMAN TRIATHLON ITAL03:10:0917:10:11.6000:55:02
1201241CIVETTINIEMANUELAM3EUROPA SSD03:10:2317:10:25.4000:55:16
1211210TRONCONIGIULIAM1FUMANE TRIATHLON03:10:5417:10:56.9500:55:47
1221162MINONNEDEBORAM2SAVONA TRIATHLON03:12:0617:12:08.5500:56:59
1231231ISOLASTEFANIAM2VERDE PISELLO GROUP03:12:2517:12:27.9500:57:18
1241247FANTUZZIMONICAM3A.S.D. SESSANTALLORA03:13:3917:13:41.4000:58:32
1251214CIANCHETTISIMONAM1TRITALY ASD03:13:4617:13:48.7000:58:39
1261200CIMINOGRAZIAS4VTT03:13:5917:14:01.9000:58:52
1271252APPIGNANIMARIA CHIARAS3TESSERAMENTO GIORNALIERO03:14:1717:14:19.1500:59:10
1281242SCAGLIOTTILORENAM3STEEL T - BG03:14:2117:14:23.1500:59:14
1291166MANDRUZZATOLAURA-ELENAS4TREVISO TRI03:17:2717:17:29.3501:02:20
1301235PIERRONPASCALINEM2EROI DEL PIAVE03:18:5417:18:56.4001:03:47
1311205MUSANTEMAURAS4JCT VIGEVANO03:22:0117:22:04.0001:06:55
1321185VELLARMARIA SOLEJUTRIATHLON 7C ASD03:23:1517:23:17.2001:08:08
1331173SCALAMOGNARENATAS4MERAVIGLIE TRIATHLON03:25:1617:25:18.7501:10:09
1341236LORENZINIBARBARAM3PADOVA TRIATHLON03:26:1617:26:18.1001:11:09
1351176MILLERELIZABETHNONE03:28:4117:28:44.0001:13:35
1361180SEIDLERPOLLYM2EASTERN SUBURBS TRIATHLON CLUB03:49:4517:49:47.4001:34:38
1371237FONTANAANTONIETTAM3VTT04:02:0618:02:08.4501:46:59

SPRINT – Maschile

PETTORALEPOSIZIONECOGNOMENOMECATEGORIANOME TEAMTEMPOORA ARRIVODISTACCO
5111SECCHIEROANDREA GIACOMOELG.S. FF.OO.01:00:2511:40:24.9500:00:00
42CHITTIDARIOELPROJECT ULTRAMAN LE01:00:2911:40:28.2500:00:04
33PESAVENTOFRANCOS1THE HURRICANE S.S.D.01:01:2511:41:24.1500:01:00
64PREVITALITHOMAS FRANCESCOS1RASCHIANI TRI PAVESE01:01:2911:41:28.2500:01:04
95ZAMO'FEDERICOJUTHE HURRICANE S.S.D.01:01:4211:41:41.4500:01:17
76INTAGLIATASTEFANOS3A.S.D. TORINO TRIATH01:01:4811:41:47.6000:01:23
117BRUNILUCAYBK3 CREMONA01:01:5311:41:52.4500:01:28
18RIGONISTEFANOS1T.D. RIMINI01:02:0211:42:01.2500:01:37
109TERRANOVAALESSANDROS3DERMOVITAMINA B) SID01:02:0511:42:04.3000:01:40
810SALINIGABRIELES470701:02:1811:42:17.3500:01:53
34811ANGELINIDANIELES2CUS FERRARA01:02:4211:50:11.8000:02:17
1612SPAGNOLOLORENZOYBTRI.RN.MAROSTICA01:02:5311:42:52.5000:02:28
1213BORTOLAMEDIMICHELEYBFERSENTRI A.S.D.01:03:1811:43:17.9500:02:53
1814TESTAFEDERICOYBTRI TEAM BRIANZA01:03:4611:43:45.3000:03:21
515SPINAZZE'FEDERICOELSILCA ULTRALITE01:04:0811:44:07.7500:03:43
2616BONALUMIMATTEOJU70701:04:1611:44:15.7500:03:51
2117SACCHIFRANCESCOJUPIANETA ACQUA01:04:4011:44:39.8000:04:15
1518PIZZEGHELLAANDREAS2TRIATHLON CREMONA ST01:04:5011:44:49.3500:04:25
1419DE PONTECHRISTIANYBA.S.D. TORINO TRIATH01:04:5511:44:54.6500:04:30
1320GALEAZZOALESSANDROJUPPRTEAM01:04:5711:44:56.2000:04:32
32521PAPPTAMASELBudaorsi Triatlon Klub01:05:1111:45:10.8500:04:46
32622VARGAMARTONELBudaorsi Triatlon Klub01:05:1711:45:16.2500:04:52
2023FOPPOLOPIETROS2RASCHIANI TRI PAVESE01:05:3311:45:32.7500:05:08
2724CIVERAFABIOS470701:05:3811:45:37.9000:05:13
2525CARIDIMATTEOM1VERONA TRIATHLON KM01:05:4011:45:39.4000:05:15
3926FAVERSANIMARCOYBPIANETA ACQUA01:05:5111:45:50.1500:05:26
2927CAPELLODAVIDES1CANOTTIERI SALO'01:06:0011:45:59.5500:05:35
2828MARINIMASSIMILIANOS4FREEZONE01:06:0111:46:00.3500:05:36
1929BEDUZZIDAVIDEYBT'N'T SSD01:06:0211:46:01.2500:05:37
32430MOLNARPETERYBBudaorsi Triatlon Klub01:06:0411:46:03.3000:05:39
2331GATTIMARCOS3OTRI 1 COMO01:06:2011:46:20.0500:05:56
4232BELLUCCOLORENZOS2PROPATRIA MILANO01:06:4211:46:41.2000:06:17
3833LAVELLIMASSIMOM1FREEZONE01:06:4411:46:43.8000:06:19
4734SERRATOREANTONIOS270701:06:4711:46:46.3500:06:22
3635KAMALICHANDREAM1PROPATRIA MILANO01:06:5611:46:55.3000:06:31
5036BERARDINILUCAS4FERALPI TRIATHLON01:07:0611:47:05.4500:06:41
2237IORIATTIGABRIELEJUFERSENTRI A.S.D.01:07:2011:47:19.2500:06:55
5338CICCIARELLAGIUSEPPES3VERONA TRIATHLON KM01:07:2611:47:25.2000:07:01
3039CARAFFINIANDREAS4SPORT MANAGEMENT01:07:3311:47:32.1000:07:08
2440GUZZIMICHAELS3TRIATHLON BERGAMO01:07:5111:47:50.5500:07:26
4141PEREGOLUCAS270701:07:5311:47:52.6000:07:28
4842BELLINZONAGABRIELES4FREEZONE01:07:5611:47:55.5000:07:31
3143NULLIMANUELS4PESCHIERA TRI01:08:0211:48:01.7500:07:37
4344BELLEMOMICHELEM2A.S. DELFINO CHIOGGI01:08:0611:48:05.2000:07:41
6245GILIOLISAMUELES1T.D. RIMINI01:08:1011:48:09.1000:07:45
3346SALVATERRAILARIOM1S.S.D. SCHIANTARELLI01:08:1511:48:14.8500:07:50
3447DOS SANTOS GALVAOMARIO ROGERIOS4DUE PONTI01:08:1811:48:17.5500:07:53
12148BOCCAFRANCESCOS3SAI FRECCE BIANCHE01:08:1911:48:18.8000:07:54
5149CAPPELLARIMARCOS3VERONA TRIATHLON KM01:08:2011:48:20.0500:07:56
12750MARTINELLIRICCARDOJUFERSENTRI A.S.D.01:08:2311:48:22.2000:07:58
9851MANFREDINIMAURIZIOM3TRIATHLON CREMONA ST01:08:2311:48:22.6000:07:58
3252MUTTISTEFANOM1S.S.D. SCHIANTARELLI01:08:2711:48:26.9500:08:02
5453TORTELLAGIACOMOS4PESCHIERA TRI01:08:3811:48:37.6500:08:13
5854GARAVAGLIAMAURO CESAREM2TRYLOGY01:08:4511:48:44.4500:08:20
5755IMPIOMBATOANDREAYBPROPATRIA MILANO01:08:4811:48:47.2500:08:23
5256CONCERPAOLOM2NLF01:08:5111:48:50.5500:08:26
4457PARISIPIETROJUJCT VIGEVANO01:08:5311:48:52.7500:08:28
6658ZECCHINGIANMARCOS2G.S. ALPINI VICENZA01:08:5611:48:55.9500:08:31
34559BELLUZZOANDREAS2PESCHIERA TRI01:08:5811:56:27.7000:08:33
5660BRUNICLAUDIOM2K3 CREMONA01:09:0411:49:03.9500:08:39
7161PANZETTIMATTEOS3ATLETICA MANARA01:09:1111:49:10.2000:08:46
4062DOSSELLILUCAS270701:09:1811:49:17.2000:08:53
4663FERRARIMASSIMOM3FERALPI TRIATHLON01:09:1911:49:19.0000:08:54
7264FERRARIGIANPIETROM1FREEZONE01:09:3711:49:36.9000:09:12
38765POLLAWALTERM1TRI ALTO ADIGE01:09:3711:57:07.0000:09:12
7366ACANFORAPAOLOM2ZEROTRENTA TRIATHLON01:09:3911:49:38.5500:09:14
10967PICENNIVANESM1STEEL T - BG01:09:4311:49:42.4500:09:18
6568MARCHIORIMICHELEM1A301:09:4611:49:45.2000:09:21
6069LEONARDIMATTEOS2CUS TRENTO CTT01:09:4711:49:46.4500:09:22
4970ZANNONIDIEGOS4CY LASER TRI SCHIO01:09:4811:49:47.6000:09:23
3771SANDRINISIMONES3S.S.D. SCHIANTARELLI01:09:5311:49:52.4000:09:28
6772VECCHINIEUGENIOM3T'N'T SSD01:09:5511:49:54.9000:09:30
33373FORZINETTIALBERTOYBTRI TEAM BRIANZA01:10:0111:57:30.3500:09:36
11274BERTOLINIALESSANDROM2TRI RACE ROCK TEAM01:10:1111:50:10.5000:09:46
36075CATTANIDANIELES3TRIBU'01:10:2411:57:53.6000:09:59
6176ZOPPIMARCOM2K3 CREMONA01:10:2611:50:25.1500:10:01
6977MENDOGNIFRANCESCOS3VIADANA TRIATHLON01:10:2611:50:25.5500:10:01
8678MORETTIALESSANDROM2CANOTTIERI SALO'01:10:2811:50:27.5500:10:03
5979DE CILLISFRANCESCOS4CANOTTIERI SALO'01:10:3311:50:32.6500:10:08
6880SALAEUGENIOS4SPARTACUS TRILECCO01:10:4311:50:42.2500:10:18
7981DALLA LIBERALUCAS3PADOVA TRIATHLON01:10:5511:50:54.1500:10:30
9682APERIOMATTEOS3DESENZANO TRIATHLON01:10:5711:50:56.2000:10:32
7783DEPONTIALESSANDROYBTRI TEAM BRIANZA01:11:2111:51:20.2500:10:56
8984DALIPIHENRIS170701:11:2111:51:20.4500:10:56
7085CANALFABIOS4SSDSPORTIVAMENTEBL01:11:2711:51:26.3500:11:02
44586DEPEDRIRAFFAELES3Tesseramento Giornaliero01:11:3211:59:01.8000:11:07
8287ZANETTIRUDYS2EROI DEL PIAVE01:11:3911:51:38.1000:11:14
12888RIZZOTTONICOLAS3SPORTEGO TEAM01:11:4011:51:39.2500:11:15
50989ALBINICARLOM3ASD TEAM HIBISCUS01:11:4011:51:39.2500:11:15
7890ZENTISTEFANOM3T'N'T SSD01:11:4111:51:40.4000:11:16
7591MAFFIOLETTINICOLAS170701:11:4111:51:40.6500:11:16
8892NASUELLINICOLAS4CUSIOCUP01:11:4111:51:40.8500:11:16
39593REBONATOGABRIELEM2PADOVANUOTO TRI01:11:4111:59:11.0500:11:17
43894DUCHINICOLAS1Tesseramento Giornaliero01:11:4311:59:12.4000:11:18
7695DOSSIUMBERTOS170701:11:5011:51:49.3500:11:25
11796ROSSIFILIPPOM2VERONA TRIATHLON KM01:12:0611:52:05.1000:11:41
10297FINARELLIGIOVANNIS4VERONA TRIATHLON KM01:12:0811:52:08.0500:11:44
8598RASIANDREAS3A.S. DELFINO CHIOGGI01:12:1011:52:09.9500:11:45
40499ZAVATARELLIFERNANDOM2VERONA TRIATHLON KM01:12:1511:59:44.7500:11:50
114100GROPPOSAMUELS3TRIBU'01:12:1711:52:16.1500:11:52
144101TOBANELLINICOLAYBCANOTTIERI SALO'01:12:2111:52:20.5500:11:56
64102VISINALIANTONIO FRANCESCOS3PROPATRIA MILANO01:12:2711:52:26.2000:12:02
95103GARGIULOLUCAS3PUROSANGUE ASD01:12:2811:52:27.1500:12:03
460104ROSOLINOMASSIMILIANOM1Tesseramento Giornaliero01:12:2811:52:27.3000:12:03
379105FRESILUCAM1VERONA TRIATHLON KM01:12:2911:59:58.4500:12:04
45106PAGANISTEFANOS270701:12:3111:52:30.9500:12:06
84107MAZZOLADAVIDE GIUGLIOM2NLF01:12:4311:52:43.0500:12:19
123108PATANIAGUIDOS4OTRI 1 COMO01:12:4411:52:43.4500:12:19
106109LONGHINDIEGOM4ASD VICENZA TRIATHLO01:12:4411:52:43.6000:12:19
341110MOCELLINFABIOS2TRIBU'01:12:4612:00:15.1500:12:21
441111BRIGADOILORENZOS2Tesseramento Giornaliero01:12:4812:00:17.1500:12:23
107112LOTTOLUIGIM2SSDSPORTIVAMENTEBL01:13:0311:53:02.5500:12:38
93113ONTINIERICM2ZEROTRENTA TRIATHLON01:13:0611:53:05.8500:12:41
124114VITTORIALIALBERTOS4CUS BRESCIA01:13:0911:53:08.7500:12:44
455115ALBANIGIANFRANCOS4Tesseramento Giornaliero01:13:1012:00:40.0000:12:45
83116TOSOLORENZOJUCANOTRIATHLON01:13:1211:53:11.2000:12:47
80117MONTENEGROLUCAM36.15 TRI01:13:1211:53:11.3500:12:47
355118TARSIANDREAS3TRIIRON01:13:1312:00:42.1500:12:48
113119VEZZOLAVALERIOM1CANOTTIERI SALO'01:13:1511:53:14.3500:12:50
104120LONGOTONYS270701:13:2111:53:20.7000:12:56
55121MORINICORRADOM3CUS PARMA ASD01:13:3911:53:38.9000:13:14
414122BRESCIANISTEFANOM2STEEL T - BG01:13:4212:01:11.8500:13:17
101123BEVILACQUAMATTEOJUA.S.D. TORINO TRIATH01:13:4511:53:44.7000:13:20
111124PEZZANIALBERTOM3K3 CREMONA01:13:4611:53:45.2000:13:21
115125DOLCIDANIELEM2T'N'T SSD01:13:4711:53:46.5500:13:22
138126CLARETTIROBERTOM2FREEZONE01:13:4811:53:47.4500:13:23
105127ZANETTIMATTEOS1CUSIOCUP01:13:5411:53:53.9500:13:29
87128PARISINIRINOM2CANOTTIERI SALO'01:14:0811:54:07.8500:13:43
337129TROLESEFRANCESCOJUA.S. DELFINO CHIOGGI01:14:1212:01:41.5000:13:47
63130ABATIALBERTOS470701:14:1611:54:15.1500:13:51
141131TOGNISTEFANOJUCANOTTIERI SALO'01:14:2111:54:20.6500:13:56
94132MARCONCINIGIAMPAOLOM3VERONA TRIATHLON KM01:14:2711:54:26.5500:14:02
125133POLETTIGIANLUCAM2CUS PARMA ASD01:14:2811:54:27.1500:14:03
335134FORESTIANDREAYBJCT VIGEVANO01:14:2812:01:57.8000:14:03
119135GOTTARDISTEFANOM4DESENZANO TRIATHLON01:14:3311:54:33.0000:14:08
116136MAGELLIMATTEOS2AMICI DEL NUOTO VVF01:14:3511:54:34.7500:14:10
122137DOSSELLIANGELOM470701:14:3911:54:38.6500:14:14
126138BALDINIMATTEOS4RUN RAN RUN T01:14:4111:54:40.3000:14:16
137139FRASSATIANDREAM2IRONBIELLA01:14:4211:54:41.1000:14:17
370140TROLESEMASSIMILIANOS4VERONA TRIATHLON KM01:14:4212:02:11.2500:14:17
353141POLATOSTEFANOS3FREEZONE01:14:4212:02:11.3500:14:17
145142MARIOTTIMARIANOM1T.D. CREMONA01:14:4411:54:43.3500:14:19
149143RANCANLEONARDOS4VERONA TRIATHLON KM01:14:5311:54:52.5500:14:28
168144BRUNORINICOLAYBCANOTTIERI SALO'01:14:5411:58:25.8500:14:29
153145MARTELLOCHRISTIANM1DOLOMITICA NUOTO CTT01:14:5711:54:56.8500:14:32
130146PERSICHITTISTEFANOM2PROPATRIA MILANO01:15:0011:54:59.7000:14:35
135147CODENFABIOS4EROI DEL PIAVE01:15:0211:55:01.6500:14:37
451148MAFFIOLETTIFABIOS3Tesseramento Giornaliero01:15:0312:02:32.9000:14:38
118149DEFLORIOPAOLOS3SGM TRIATHLON01:15:1011:55:09.3000:14:45
156150AMIGHINIALDOM3TRAGUARDO VOLANTE01:15:1111:55:10.8000:14:46
129151ANTONIOLIFRANCESCOM3FUMANE TRIATHLON01:15:1811:55:17.6500:14:53
329152POZSGAYGABORM2Budaorsi Triatlon Klub01:15:2712:02:56.9000:15:02
263153MARCHIEMANUELEM1VERONA TRIATHLON KM01:15:2811:58:59.6500:15:03
133154GOVERNOMARCOM3PESCHIERA TRI01:15:2811:55:27.9000:15:03
339155PIAMATTEOS1SAI FRECCE BIANCHE01:15:3612:03:05.9500:15:11
99156CARLINIMICHELES2FERSENTRI A.S.D.01:15:4411:55:43.8500:15:19
131157GIARRUSSOMAURIZIOM1CANOTTIERI SALO'01:15:4511:55:44.7000:15:20
354158CASTAGNOLARENATO ALONSOS3VENUS TRIATHLON01:15:4712:03:16.6000:15:22
90159DORIANICOLAM2A.S. DELFINO CHIOGGI01:15:4911:55:48.1000:15:24
136160RUFFINIMASSIMOM4RUNNERS SALO'01:15:5311:55:52.4500:15:28
382161BODEIPAOLOM1EUROPA SSD01:15:5412:03:23.2000:15:29
139162ASTOREALBERTOM2SAI FRECCE BIANCHE01:15:5811:55:58.0500:15:34
74163LOSIGIACOMOS1OSTIGLIA NUOTO01:16:0811:56:07.3500:15:43
402164FORNASARIGIAMPAOLOM2VERONA TRIATHLON KM01:16:0812:03:37.8500:15:43
390165CAPPELLISTEFANOM1SEA SUB MODENA01:16:1812:03:47.3500:15:53
143166ARALDIDEMISM1S.S.D. SCHIANTARELLI01:16:2811:56:27.7500:16:03
152167SPINAPIERANGELOM4CUS PARMA ASD01:16:4311:56:42.3500:16:18
132168CINQUANTINIMARCOS3IRON BEAT01:16:4411:56:43.1500:16:19
91169MARINIMICHELEM2PADOVA TRIATHLON01:16:4411:56:43.8500:16:19
158170VISCONTIPIERUGOM4SAI FRECCE BIANCHE01:16:4811:56:47.3500:16:23
392171CARLINNICOLAM1ASD VICENZA TRIATHLO01:16:4812:04:17.7500:16:23
338172BERGAMASCOMATTEOJUPESCHIERA TRI01:16:4912:04:18.2000:16:24
140173FRIGERIOALESSIOS2VTT01:16:5111:56:50.9500:16:26
150174GORETTICHRISTIANM2TRI ALTO ADIGE01:16:5611:56:55.6500:16:31
429175MILANILORENZOM4A.S.D. RHODIGIUM TEA01:16:5712:04:26.8500:16:32
179176PEZZOLAMICHELEM1FREEZONE01:17:0212:00:33.7500:16:37
169177VERONESEIGORM1CUS TRENTO CTT01:17:1712:00:48.6500:16:52
154178ANGELINOALBERTOM2IRONBIELLA01:17:1911:57:18.6500:16:54
222179TRAZZIMARTINOJUT'N'T SSD01:17:2512:00:56.6500:17:00
391180PELLEGRINIUGOM1FERALPI TRIATHLON01:17:2712:04:56.7000:17:02
411181BENEDETTIGIULIOM2PESCHIERA TRI01:17:3412:05:04.0500:17:10
92182CAMPISISALVATORES3A.S.MINERVA ROMA01:17:4111:57:40.5500:17:16
182183MARGIONTIMATTEOYBS.S.D. SCHIANTARELLI01:17:5012:01:21.5500:17:25
110184PASETTOANDREAM3VERONA TRIATHLON KM01:17:5111:57:51.0000:17:26
171185BERTUGLIGIOVANNIM2AVIA PERVIA01:17:5912:01:30.4500:17:34
439186MATELLONANTONIOS1Tesseramento Giornaliero01:17:5912:05:28.8500:17:34
359187COMAISTEFANOS3OLIMPIC TRIATHLON01:18:0012:05:29.7500:17:35
217188FERROMICHELEM1VERONA TRIATHLON KM01:18:0512:01:36.9500:17:40
165189RODELLADAVIDEM2CANOTRIATHLON01:18:0812:01:39.9000:17:43
336190CICCHETTIRICCARDOJUTRIATHLON ZOLA01:18:1012:05:39.8000:17:45
142191SIRIOGIACOMOM1ESSECI01:18:1511:58:14.1500:17:50
175192TRENTINISANDROM3CUS TRENTO CTT01:18:2212:01:53.9500:17:57
191193FORMENTELLIMICHELEM2ASD 226 TRIATHLON V.01:18:2512:01:56.2000:18:00
193194BIGHELLIMICHELES4PESCHIERA TRI01:18:3612:02:07.1500:18:11
356195SAVKONICOGNJENS3LC BOZEN01:18:4212:06:11.8000:18:17
458196VALTORTAFILIPPOM1Tesseramento Giornaliero01:18:4412:06:13.8500:18:19
247197ROPELATOMASSIMOM2CUS TRENTO CTT01:18:4712:02:18.5500:18:22
148198MISICVUKJUCANOTTIERI SALO'01:18:5011:58:49.8000:18:25
157199ASSANDRIALBERTOM2TRIATHLON CREMONA ST01:18:5711:58:56.2500:18:32
190200LORENZETTOALBERTOS3VERONA TRIATHLON KM01:18:5712:02:28.3500:18:32
167201GIBBINDANIELEM3A.S. DELFINO CHIOGGI01:18:5812:02:29.2500:18:33
287202BENEDETTIENRICOM3DESENZANO TRIATHLON01:19:0412:02:35.3000:18:39
187203DEFENDENTIIVANM3RHO TRIATHLON CLUB01:19:2512:02:56.3000:19:00
385204CHIARAMONTEMICHELEM1VERONA TRIATHLON KM01:19:3112:07:00.5500:19:06
151205CHIODICRISTIANM2FREEZONE01:19:3211:59:31.6500:19:07
203206GIACOBBEEDOARDOS1SAI FRECCE BIANCHE01:19:3512:03:06.2000:19:10
195207CARLINIDOMENICOM2FERALPI TRIATHLON01:19:4312:03:14.5500:19:18
401208PISCIOLIVASCOM2RUNNERS SALO'01:19:4512:07:14.5000:19:20
361209SPERANDIOMATTEOS4VERONA TRIATHLON KM01:19:4612:07:15.8000:19:21
178210SARTILUCAS2VERONA TRIATHLON KM01:19:5312:03:24.1000:19:28
177211ZAMBONIALESSANDROS4VERONA TRIATHLON KM01:19:5312:03:24.5000:19:28
146212BALESTRIEROROBERTOM3FUMANE TRIATHLON01:19:5311:59:52.8500:19:28
170213DALL'AGNOLAMARCOM4VERONA TRIATHLON KM01:19:5812:03:29.2500:19:33
162214OPICIMORENO MARIOS3NLF01:19:5812:03:29.9000:19:33
408215CECCHILEONARDOM2EMPOLI TRIATHLON01:20:0512:07:34.2500:19:40
164216TOMASONIDANIELEM1CUS BRESCIA01:20:1112:03:42.1500:19:46
485217DIOTTIALBERTOM2Tesseramento Giornaliero01:20:1612:07:46.0500:19:52
192218PONTIROLIMARCELLOM1VIADANA TRIATHLON01:20:2412:03:55.4000:19:59
207219VERDIANIANDREAS4OLIMPIACOLLE01:20:2712:03:58.2500:20:02
155220LANFRANCHISTEFANOM3RASCHIANI TRI PAVESE01:20:2912:00:28.9000:20:04
163221PAVANENRICOM1A.S.D. RHODIGIUM TEA01:20:3712:04:08.4000:20:12
134222BADIALIALESSANDROM2CALYPSO TRIATHLON01:20:4012:00:39.8500:20:15
510223GIUNTIFAUSTOM2TRI TEAM BRIANZA01:20:4012:00:39.8500:20:15
199224LUCCHIFRANCESCOS2OSTIGLIA NUOTO01:20:4112:04:12.1000:20:16
173225PILLANSIROM3G.S. ALPINI VICENZA01:20:4512:04:16.2500:20:20
250226BROMURIFULVIOM3ASD CNM TRIATHLON01:20:4712:04:18.8000:20:22
340227CALVIANDREAS2TEAM BIKE GUSSAGO AS01:21:0012:08:29.7000:20:35
262228ROSSIANDREAS4GALILEO TRIATHLON01:21:0312:04:34.2500:20:38
120229CANTONIWALTHERM1CESENA TRIATHLON01:21:0812:01:08.0000:20:43
231230FLORAMAUROM4ASI TRIATHLON NOALE01:21:1312:04:44.1500:20:48
463231CERRIDAVIDEM1Tesseramento Giornaliero01:21:1512:08:44.1500:20:50
343232PACCHIONIDANIELES2OSTIGLIA NUOTO01:21:1912:08:48.6500:20:54
189233MASELLIENRICOS4PORTA SARAGOZZA BO01:21:2712:04:58.4000:21:02
210234BANDIERIMARCOM4AVIA PERVIA01:21:2812:04:59.2000:21:03
219235MAPELLILUCAS4APD ANDREANA SACRA F01:21:3412:05:05.3500:21:09
202236BELLUCCOEZIOM4PROPATRIA MILANO01:21:3512:05:06.3000:21:10
446237TORRIMICHELES3Tesseramento Giornaliero01:21:3812:09:07.7000:21:13
181238NIZZOLAROBERTOM5S.S.D. SCHIANTARELLI01:21:3912:05:10.9500:21:14
161239CALLEGAROEDOARDOJUA.S. DELFINO CHIOGGI01:21:4112:05:12.9500:21:16
380240KRAUSE-TUENKERSASCHAM1OXYGEN TRIATHLON01:21:4212:09:11.6000:21:17
351241ALDRIGHETTIDAVIDES2TRIATHLON ALTO LARIO01:21:4412:09:13.3500:21:19
185242ALBIEROPAOLOM4A.S. DELFINO CHIOGGI01:21:5212:05:23.3000:21:27
188243TURCOPATRIZIOM2G.P. TRIATHLON01:21:5412:05:25.6500:21:29
346244OCHNERDANIELES2FERSENTRI A.S.D.01:21:5612:09:25.8500:21:31
410245BONADIMANIMARCOM2T'N'T SSD01:22:0012:09:29.1000:21:35
449246DE VENEREANDREAS3Tesseramento Giornaliero01:22:0012:09:29.8500:21:35
211247GUSSAGONICOLAM1FERALPI TRIATHLON01:22:0312:05:34.3000:21:38
206248BORDIGNONNICOLAM1VERONA TRIATHLON KM01:22:0312:05:34.5500:21:38
406249VITELLISTEFANOM2CUNEO1198 TRITEAM01:22:0512:09:35.0500:21:41
180250GUARNIERIGABRIELEM5TRIATHLON BERGAMO01:22:0812:05:39.6000:21:43
229251RILLAMAUROM1CY LASER TRI SCHIO01:22:1312:05:45.0500:21:49
228252GANDOLFINICOLAS4TRIATHLON CREMONA ST01:22:1912:05:50.5000:21:54
220253MORSANUTTOVALTERM3TRIATHLON CAORLE01:22:1912:05:50.5500:21:54
194254BONETTIMATTIAS1TRIATHLON CREMONA ST01:22:2312:05:54.3000:21:58
420255CAMOSSIWILLIAMM3ASD 226 TRIATHLON V.01:22:2612:09:55.1500:22:01
344256CIAMPANELLIGABRIELES2PRECISION TEAM01:22:2912:09:58.1000:22:04
239257CHISINIGIOVANNIS4SILCA ULTRALITE01:22:3812:06:09.7500:22:13
205258BERGAMODINOM4EROI DEL PIAVE01:22:4112:06:13.0500:22:17
396259CIELOMATTIAM2MARTINA DOGANA TRITE01:22:4312:10:13.0500:22:19
334260BOSCOLO GNOLOGIACOMOYBA.S. DELFINO CHIOGGI01:22:4512:10:14.2500:22:20
399261TAIETTIMIRKOM2VERONA TRIATHLON KM01:22:4512:10:14.2500:22:20
474262LIONELLODAVIDEM1Tesseramento Giornaliero01:22:5012:10:19.2000:22:25
159263CINQUETTILUCIOM4T'N'T SSD01:22:5012:02:49.3500:22:25
223264GONZOGUIDOM4CY LASER TRI SCHIO01:22:5112:06:22.9500:22:26
235265RADICIGIANANTONIOM5ASD CNM TRIATHLON01:22:5212:06:24.0500:22:28
375266CALCAGNIANDREAM1FUMANE TRIATHLON01:22:5912:10:28.8500:22:34
261267BERTILUIGIM4G.S. BARDOLINO01:23:0112:06:32.2000:22:36
416268CRESPIFABRIZIOM2TRIATHLON BERGAMO01:23:0912:10:38.7000:22:44
216269NIZZOLIENRICOM1VERONA TRIATHLON KM01:23:1412:06:45.8500:22:49
347270AGAZZANIDAVIDES2OSTIGLIA NUOTO01:23:2312:10:52.8500:22:58
358271DEL PANTANICCOLO'S3FIRENZE TRI01:23:2412:10:53.4500:22:59
214272FATTORINIMAURIZIOM3A.S. DELFINO CHIOGGI01:23:2712:06:58.2000:23:02
367273REBUTTINIALESSANDROS4SEA SUB MODENA01:23:3412:11:03.7000:23:09
209274MARTINIGIANLUCAM2PESCHIERA TRI01:23:3512:07:06.4500:23:10
365275MOTTAALESSANDROS4TRIATHLON CREMONA ST01:23:3612:11:05.1000:23:11
372276PORTAANDREAS4DDS01:23:3812:11:07.3000:23:13
233277MURARIANDREAM1TRAGUARDO VOLANTE01:23:4512:07:17.0000:23:20
442278BRONDIMARCOS2Tesseramento Giornaliero01:23:4812:11:17.6500:23:23
267279CATTONIMARIOM2TRI.ONDAVERDE01:23:5112:07:22.1000:23:26
453280AMATOALESSANDROS4Tesseramento Giornaliero01:23:5112:11:20.6500:23:26
172281ROMANOGIUSEPPEM4NLF01:23:5212:07:23.7500:23:27
213282AGOSTASALVATORES4SAI FRECCE BIANCHE01:23:5312:07:24.5500:23:28
238283BERTOLIFRANCESCOM4K3 CREMONA01:23:5712:07:28.6500:23:32
234284BRAISMIRKOM1FREEZONE01:24:0212:07:33.3000:23:37
253285QUARTAALESSIOS4TRAGUARDO VOLANTE01:24:1712:07:48.1500:23:52
342286EGENTERNICOLAS2FERSENTRI A.S.D.01:24:2612:11:55.9500:24:01
482287INTRAMARIOM2Tesseramento Giornaliero01:24:2912:11:59.0000:24:04
227288DELMIGLIOANGELOM1RUNNERS SALO'01:24:3012:08:01.5000:24:05
467289VISMARAIVAN ANDREAM1Tesseramento Giornaliero01:24:3912:12:08.8500:24:14
475290BIANCHIGABRIELEM1Tesseramento Giornaliero01:24:4012:12:09.6000:24:15
362291PIRASMICHELES4VERONA TRIATHLON KM01:24:4112:12:10.2000:24:16
198292FONTANELLIRICCARDOM3G.P. TRIATHLON01:24:4312:08:14.7000:24:18
271293CAGNONIMATTIAS4A.S.D. RHODIGIUM TEA01:24:4912:08:20.4500:24:24
174294FARINAMANUELS4TRAGUARDO VOLANTE01:24:5012:08:21.8500:24:25
232295BONETTOANTONIOM2GRANBIKE TRIATHLON01:25:0712:08:38.2000:24:42
197296GAGINOGIAN LUCAS4DDS01:25:1012:08:41.9500:24:45
452297PIZZOCOLOANGELOS4Tesseramento Giornaliero01:25:2112:12:51.0500:24:57
350298SBREVIGLIERICLAUDIOS2OSTIGLIA NUOTO01:25:2412:12:53.3000:24:59
366299BERTOCCHIMASSIMILIANOS4TRIATHLON BERGAMO01:25:2712:12:56.7500:25:02
369300BANDECCHIFEDERICOS4HAPPY RUNNER CLUB01:25:3112:13:00.7000:25:06
218301BONFANTECORRADOM3S.S.D. SCHIANTARELLI01:25:3212:09:03.2500:25:07
204302ANCESCHIMARCOM2A.S.D. SESSANTALLORA01:25:4312:09:14.5500:25:18
241303RUARODINOM3G.S. ALPINI VICENZA01:25:4412:09:15.8500:25:19
412304MORONISTEFANOM2STEEL T - BG01:25:5112:13:20.6000:25:26
237305FAVALINIGIANCARLOM3TRIBO01:25:5112:09:22.7000:25:26
186306RUBINOANDREA GIUSPPEM2MELEGNANO TRIATHLON01:25:5812:09:29.2500:25:33
352307UCCISTEFANOS3OTRI 1 COMO01:26:0612:13:35.4500:25:41
332308BOLLHARALDM4Tesseramento Giornaliero01:26:0712:13:36.1500:25:42
252309TOMMASINISTEFANOM1TRIATHLON ZOLA01:26:0812:09:39.7000:25:43
425310CO'MASSIMOM3CANOTRIATHLON01:26:0912:13:38.6000:25:44
481311BARRETTASTEFANOM2Tesseramento Giornaliero01:26:1612:13:45.2500:25:51
230312BOSCOLO MENEGUOLOGUGLIELMOYBA.S. DELFINO CHIOGGI01:26:1612:09:47.3500:25:51
264313BARIANIROBERTO SERGIOM3G.S. BARDOLINO01:26:2212:09:53.7500:25:57
208314FUSARILUIGI GIACOMOS4TRIATHLON CREMONA ST01:26:2412:09:55.6000:25:59
444315MARCOLONGOALBERTOS2Tesseramento Giornaliero01:26:2412:13:53.8500:25:59
331316BUDYGERHARDM4Lifepark Max e. V.01:26:2612:13:55.1500:26:01
243317ACOMONTIANTONIOM3TRI TEAM BRIANZA01:26:2612:09:57.6000:26:01
448318PICCAGLIANIFRANCESCOS3Tesseramento Giornaliero01:26:2712:13:56.4500:26:02
456319TURRIFRANCESCOS4Tesseramento Giornaliero01:26:2712:13:56.8000:26:02
244320PEDERNESCHIFEDERICOM2T.D. CREMONA01:26:3712:10:08.1000:26:12
225321MAGELLIMASSIMOM3ATL. MDS PANARIAGROU01:26:4212:10:13.3500:26:17
424322TOFFALORIANGELOM3TRI RACE ROCK TEAM01:26:4312:14:12.8500:26:18
294323OGLIETTILUIGIM2RASCHIANI TRI PAVESE01:26:4712:10:18.3500:26:22
454324ROVETTALUCAS4Tesseramento Giornaliero01:26:5012:14:20.0000:26:25
432325MARTINENGHILUIGIM4ASD CNM TRIATHLON01:27:0112:14:30.5000:26:36
273326CAVALLETGABRIELEM3TRI TEAM BRIANZA01:27:0412:10:35.8000:26:39
310327MALAVASILIVIOM3DESENZANO TRIATHLON01:27:0512:10:36.7000:26:40
357328BRUSEGANMARCOS3ASI TRIATHLON NOALE01:27:1512:14:44.4500:26:50
419329ANTIDORMIFABIOM3TRIBU'01:27:1512:14:44.6500:26:50
364330LEGRAMANTICLAUDIOS4SPORT MANAGEMENT01:27:2312:14:52.7500:26:58
272331MOSCATELLIMICHELS4IRON BEAT01:27:3212:11:03.7000:27:07
246332GAMBINIFABIOM3TRAGUARDO VOLANTE01:27:3312:11:04.6000:27:08
480333COLOGNESICLAUDIO LORENZOM2Tesseramento Giornaliero01:27:3812:15:07.6000:27:13
400334BELLAMOLIALBERTOM2T'N'T SSD01:27:4812:15:17.7500:27:23
418335TADDEIROBERTOM3VERONA TRIATHLON KM01:27:5212:15:21.3500:27:27
236336GRAZIOLICRISTIANM1T.D. CREMONA01:27:5212:11:24.0000:27:27
435337MURGOLOVINCENZOM4MELEGNANO TRIATHLON01:27:5812:15:27.4500:27:33
224338PERRELLAMASSIMILIANOM2EUROPA SSD01:28:0812:11:39.2000:27:43
258339PERICOCARLOM5TRIATHLON BERGAMO01:28:1512:11:46.4500:27:50
286340MARSANASCOGIUSEPPEM3HAPPY RUNNER CLUB01:28:2212:11:53.4500:27:57
433341STEFANELROBERTOM4VERONA TRIATHLON KM01:28:2412:15:53.6000:27:59
212342BERETTASTEFANOS4DESENZANO TRIATHLON01:28:2912:12:01.0000:28:04
381343TRENTINSAVERIOM1OSTIGLIA NUOTO01:28:3112:16:00.2500:28:06
265344MANENTIANDREAM3DE RAN CLAB01:28:3512:12:07.0500:28:11
242345PROLIVASCO MARIOM3OTRI 1 COMO01:28:4412:12:15.2500:28:19
421346CASTELLIMICHELEM3K3 CREMONA01:28:4812:16:17.8000:28:23
349347PAVOTBEHJAMINS2CUS PADOVA UNIPD01:28:5312:16:22.3000:28:28
257348BONESINIGIORGIOM6VERONA TRIATHLON KM01:28:5312:12:24.6000:28:28
277349FRANZONIROBERTOM2TRAGUARDO VOLANTE01:29:0412:12:35.4500:28:39
492350MATTEIROBERTOM2Tesseramento Giornaliero01:29:2112:16:50.3000:28:56
176351VISNADIGIANNIM4RHO TRIATHLON CLUB01:29:2512:12:56.2500:29:00
270352RIPAMONTILUCAM2TRI TEAM BRIANZA01:29:2612:12:57.4500:29:01
397353PENTASSUGLIACRISTIANOM2TRIATHLON ALTO LARIO01:29:3012:16:59.7500:29:05
280354RUGGERICRISTIANM1IN SPORT SRL SSD01:29:3212:13:03.7500:29:07
200355LANZONICLAUDIOM5AVIA PERVIA01:29:3812:13:09.2500:29:13
249356ERBAGGIALESSANDRO AUGUSTOM3PROPATRIA MILANO01:29:4312:13:14.7000:29:18
491357BURATOROBERTOM2Tesseramento Giornaliero01:29:5512:17:24.4000:29:30
472358PATTIPINOM1Tesseramento Giornaliero01:29:5812:17:28.0500:29:34
417359CLARETTOCLAUDIOM3GRANBIKE TRIATHLON01:29:5912:17:29.0500:29:35
259360DINARDOANDREAM6STEEL T - BG01:30:0412:13:35.5500:29:39
487361POPULINANDREA FABRIZIOM2Tesseramento Giornaliero01:30:0612:17:35.7000:29:41
493362RAVANELLISERGIOM3Tesseramento Giornaliero01:30:0712:17:36.9500:29:42
221363VESENTINIALBERTOM1PESCHIERA TRI01:30:1012:13:41.9000:29:45
488364ASTIERALEXANDREM2Tesseramento Giornaliero01:30:1512:17:44.9500:29:50
376365COSTA GIOVANOLOLUCAM1ASD TEAM HIBISCUS01:30:1512:17:45.0500:29:51
465366SCOTTISILVIOM1Tesseramento Giornaliero01:30:2112:17:50.6500:29:56
260367RAINERIFABIOM4RHO TRIATHLON CLUB01:30:2312:13:54.3500:29:58
284368MONTEROSSOSALVATORE MIRKOS4IRON BEAT01:30:2412:13:55.7000:29:59
368369CAMAGNONIDAVIDES4ONDA TRIATHLON01:30:2812:17:57.3500:30:03
427370BOSIOLUCAM3FERALPI TRIATHLON01:30:2812:17:57.5500:30:03
307371SARTORIDANIELES433 TT ASD01:30:2812:13:59.8000:30:03
268372CASTELLANOROBERTOM4ROAD RUNNERS01:30:3112:14:02.8500:30:06
486373LA MONACACHRISTIANM2Tesseramento Giornaliero01:30:3212:18:01.6000:30:07
301374ARRIGHIPIETROM6G.S. MANERBA01:30:4012:14:11.1500:30:15
428375AJELLIGIANLUIGIM3MELEGNANO TRIATHLON01:30:5212:18:21.6000:30:27
459376OLIVAGIANLUCAM1Tesseramento Giornaliero01:30:5312:18:22.8000:30:28
298377SBONACRISTIANOM1ASD CNM TRIATHLON01:30:5312:14:24.8000:30:28
266378LEONEFRANCESCOM2ALMOSTHERE ASD01:31:0112:14:32.1500:30:36
275379RIVASTEFANO FILIPPOM1HAPPY RUNNER CLUB01:31:0812:14:39.5500:30:43
436380MOMETTIMAURIZIOM5TEAM BIKE GUSSAGO AS01:31:0812:18:37.8000:30:43
328381MULARCZYKMACIEJM1MM Team01:31:1012:18:40.0500:30:46
291382BELOTTIALESSANDROM3TRIATHLON BERGAMO01:31:1512:14:46.5500:30:50
409383LORENZONIIPPOLITOM2PROGETTO VISTA TRIAT01:31:1912:18:48.1500:30:54
274384ROSETTIMARTINOM3TRIATHLON ZOLA01:31:5112:15:23.0000:31:26
279385LAURIADANIELES4OTRI 1 COMO01:31:5312:15:24.7500:31:28
405386ERCULIANINICOLAM2PESCHIERA TRI01:32:1312:19:42.3500:31:48
415387PARONIPAOLOM2PESCHIERA TRI01:32:1312:19:42.9500:31:48
430388MARCHIORITHOMAS MARCOM4PESCHIERA TRI01:32:1412:19:43.8500:31:49
476389LEONIMAUROM2Tesseramento Giornaliero01:32:1812:19:47.8000:31:53
373390TOSCANOVINCENZOM1DERMOVITAMINA B) SID01:32:2712:19:56.3500:32:02
447391STASSIDAVIDES3Tesseramento Giornaliero01:32:2712:19:56.9000:32:02
321392GROPPOFABIOM4A301:32:3012:19:59.4500:32:05
403393SCARATTILUCAM2DESENZANO TRIATHLON01:32:3812:20:07.2000:32:13
371394RAFFELLILUCAS4TEAM BIKE GUSSAGO AS01:32:4212:20:11.6500:32:17
398395SALARICLAUDIOM2OTRI 1 COMO01:32:5112:20:21.0500:32:27
413396TORTOLINAROBERTOM2SAI FRECCE BIANCHE01:32:5512:20:24.6000:32:30
201397PIGNIROBERTOM2CANOTRIATHLON01:33:0412:16:35.2000:32:39
377398BONATESTAIGORM1ASD VICENZA TRIATHLO01:33:0812:20:37.2000:32:43
499399GIORGIOMURARIM3Tesseramento Giornaliero01:33:1012:20:39.1000:32:45
302400MANFREDIFILIPPOS433 TT ASD01:33:1712:16:48.5000:32:52
311401CATTOIDIEGOM5TRI RACE ROCK TEAM01:33:1712:16:48.6500:32:52
248402FABBRIGIROLAMOM5FUMANE TRIATHLON01:33:2612:16:57.8500:33:01
288403PAINIFABIOM2MELEGNANO TRIATHLON01:33:2912:17:00.6500:33:04
256404SOLIANIENRICOM2ATLPULATRI01:33:3312:17:04.7500:33:08
278405GIRELLIGIOVANNIM4FUMANE TRIATHLON01:33:5012:17:21.7000:33:25
299406VENTURIFABIOS4TRIATHLON CREMONA ST01:33:5312:17:24.5000:33:28
505407BOZZINILUCAM1Tesseramento Giornaliero01:33:5512:21:24.7000:33:30
470408GIULIANIFRANCESCOM1Tesseramento Giornaliero01:34:0212:21:32.0500:33:38
363409MANCINIGIULIANOS4T'N'T SSD01:34:1912:21:48.7500:33:54
296410ROVERIMANUELM1PROPATRIA MILANO01:34:2812:17:59.3000:34:03
431411GIUGNOALESSIOM4ZEROTRENTA TRIATHLON01:34:3612:22:05.8500:34:11
394412GIORGETTIMICHELEM2T.D. CREMONA01:34:5212:22:21.6500:34:27
269413SANTINIANDREAS3IRON BEAT01:34:5212:18:23.7500:34:27
314414TANZINICOLAM3ATLETICA MANARA01:34:5212:18:23.8500:34:27
477415PALAZZOLINO FABRIZIOM2Tesseramento Giornaliero01:34:5412:22:23.4500:34:29
443416PAVARINILORENZOS2Tesseramento Giornaliero01:35:1412:22:43.6000:34:49
303417BRUNO CICIGLIARICCARDOM3RHO TRIATHLON CLUB01:35:2812:18:59.8000:35:03
306418GALLOMARCOS4TRAGUARDO VOLANTE01:35:3612:19:07.8500:35:11
290419RADINICOLAM3TRIATHLON CREMONA ST01:35:4412:19:15.7000:35:19
300420GASPARROVINCENZO LIVIOM2AVIA PERVIA01:35:5512:19:26.1500:35:30
215421BERLENDISDIEGOM1PESCHIERA TRI01:36:1112:19:42.3500:35:46
289422FIORENTINIANDREAS4PESCHIERA TRI01:36:1112:19:42.9500:35:46
226423SALETTIFABRIZIOM2PESCHIERA TRI01:36:1112:19:43.0500:35:47
240424COBIANCHINICOLAM3PESCHIERA TRI01:36:1212:19:43.2500:35:47
184425GRIGOLETTIDANIELES3PESCHIERA TRI01:36:1212:19:43.7500:35:47
183426OLIVIERIALESSANDROM2PESCHIERA TRI01:36:1212:19:43.7500:35:47
500427BRIVIOLUCAM3Tesseramento Giornaliero01:36:1712:23:46.6500:35:52
506428LOCATELLIPATRIZIOM5ASD CNM TRIATHLON01:36:1712:23:46.8000:35:52
422429CHIELLOGIAMPAOLOM3ALL TRI SPORTS01:36:3012:24:00.0000:36:05
295430GUAIUMIGIACOMOS3OSTIGLIA NUOTO01:36:3612:20:07.2500:36:11
305431LOSIANDREAM1A.S.D. SESSANTALLORA01:36:4612:20:17.8000:36:21
407432CHIEREGATOVALENTEM2EROI DEL PIAVE01:36:5312:24:22.7500:36:28
466433DEFENDIFRANCESCOM1Tesseramento Giornaliero01:37:0212:24:31.6500:36:37
313434CAROZZIFEDERICOM2TP ACADEMY TEAM01:37:1012:20:41.1500:36:45
283435TRANQUILLINGIANVITTOREM5A301:37:4812:21:19.7000:37:23
304436PAINIMASSIMILIANOM2MELEGNANO TRIATHLON01:37:5812:21:29.9500:37:33
471437MONTIMARCOM1Tesseramento Giornaliero01:38:0012:25:29.7000:37:35
457438MEGOLILORENZOS4Tesseramento Giornaliero01:38:1112:25:40.4000:37:46
285439LANTERIGIORGIOM5VIRTUS SENAGO01:38:2212:21:53.8000:37:57
504440ROSSETTORENZOM6Tesseramento Giornaliero01:38:5712:26:26.5000:38:32
464441MARZOTTOMATTEOM1Tesseramento Giornaliero01:39:0412:26:33.7000:38:39
297442COMINATOIGNAZIOM3ASI TRIATHLON NOALE01:39:0412:22:35.8500:38:39
494443ALGISIOMARM3Tesseramento Giornaliero01:39:2612:26:55.9000:39:01
490444SALVIONIMARCOM2Tesseramento Giornaliero01:39:3012:27:00.0500:39:06
389445CORLEONEFRANCOM1TRIATHLON CREMONA ST01:39:3112:27:00.7500:39:06
316446RAISISTEFANOM2PROGETTO VISTA TRIAT01:39:3412:23:05.2500:39:09
81447MARCIGAGLIAMATTIAM1PESCHIERA TRI01:39:4312:19:42.4500:39:18
108448LUCCHINILUCAM1PESCHIERA TRI01:39:4312:19:42.7000:39:18
147449TORTIMANICOLAM2PESCHIERA TRI01:39:4412:19:43.4000:39:19
497450JACOBITTIARRIGOM3Tesseramento Giornaliero01:39:5112:27:20.7000:39:26
502451SPADAMARIOM4Tesseramento Giornaliero01:40:0112:27:30.4000:39:36
503452PELOSICARLOM4Tesseramento Giornaliero01:40:0512:27:34.6500:39:40
468453VIDALSTEFANOM1Tesseramento Giornaliero01:40:1412:27:43.9000:39:49
320454DI DOMENICOMASSIMILIANOM3TRAGUARDO VOLANTE01:40:1812:23:49.5500:39:53
461455PETROLINIROBERTOM1Tesseramento Giornaliero01:40:4812:28:17.3500:40:23
450456BENNARDOPAOLOS3Tesseramento Giornaliero01:41:1512:28:44.3500:40:50
440457FIORENTINILORENZOS1Tesseramento Giornaliero01:41:2212:28:51.5000:40:57
281458SQUILLONIPAOLOM3DERMOVITAMINA B) SID01:41:4612:25:18.0500:41:22
312459APRE'ROBERTOM1VERONA TRIATHLON KM01:42:1512:25:46.9000:41:50
293460OPIPARIENRICOM7RHO TRIATHLON CLUB01:43:0612:26:37.9500:42:41
318461LAMACCHIAFRANCOM5PROPATRIA MILANO01:43:0812:26:39.5500:42:43
495462GASTALDOANDREAM3Tesseramento Giornaliero01:43:4312:31:12.5000:43:18
423463EMONETDIDIERM3ATLETICA MANARA01:45:0212:32:31.8000:44:37
462464MINGARDIFAUSTOM1Tesseramento Giornaliero01:45:3112:33:01.0000:45:06
383465MASTROVITAMATTEOM1CY LASER TRI SCHIO01:45:3212:33:01.5000:45:07
317466ZONECARLOM4HAPPY RUNNER CLUB01:46:2912:30:01.0500:46:05
483467VALENTINIPAOLOM2Tesseramento Giornaliero01:47:4612:35:15.5000:47:21
489468GALLAZZIMICHELEM2Tesseramento Giornaliero01:48:1012:35:39.6500:47:45
496469LUCCHIGABRIELEM3Tesseramento Giornaliero01:49:1412:36:43.6000:48:49
386470SPENASALVATOREM133 TT ASD01:51:5812:39:27.7000:51:33
322471MANDELLIGIORGIOM7TRIATHLON BERGAMO01:52:1912:39:48.8000:51:54
323472TOSOFRANCOM3CANOTRIATHLON01:56:3512:44:04.8000:56:10
498473GAVIRAGHIFRANCESCOM3Tesseramento Giornaliero01:58:2212:45:51.6500:57:57
437474FANTUZZIROBERTOTesseramento Giornaliero02:08:3012:56:00.0001:08:05

SPRINT – Femminile

PETTORALEPOSIZIONECOGNOMENOMECATEGORIANOME TEAMTEMPOORA ARRIVODISTACCO
6011MARCONELISAELTHE HURRICANE S.S.D.01:09:0711:39:38.3500:00:00
6022CASSINARICATERINAS1THE HURRICANE S.S.D.01:10:0311:40:34.9500:00:57
6693BUKOVSZKITUNDEJUBudaorsi Triatlon Klub01:11:2511:41:56.3000:02:18
6034MONACCHINIELISAS1DERMOVITAMINA B) SID01:13:1711:43:48.9000:04:11
6715FORSTNERRENATEM1TSV Rosenheim01:13:1811:43:49.5000:04:12
6076SERENAEVAS2333 TRIATHLON ASD01:14:3611:45:07.4000:05:29
6107FIORINGIULIAS1TRAGUARDO VOLANTE01:15:2511:45:56.2000:06:18
6138SANDRINISARAS1FERALPI TRIATHLON01:15:4211:46:13.8000:06:36
6049SARTORVIOLAYBTRI.RN.MAROSTICA01:16:0011:46:31.8500:06:54
66710HORVÁTHKAROLINAYBBudaorsi Triatlon Klub01:16:4911:47:20.3500:07:42
61511ZAVANONEILARIAS4WOMAN TRIATHLON ITAL01:17:2811:48:00.0000:08:22
60812CANTONINICOLES2FREEZONE01:18:3511:49:07.0000:09:29
60613MANZOLINAS2CHIMERA TRIATHLON01:19:1211:49:43.8500:10:06
60514CANTU'GIORGIAJURASCHIANI TRI PAVESE01:19:4911:50:20.5500:10:43
61115SALVALAGGIOLISAJUPPRTEAM01:19:5511:50:26.9500:10:49
61816DAVOLIOBARBARAM1WOMAN TRIATHLON ITAL01:20:1511:50:46.6500:11:09
61617PASTOREBENEDETTAS4PROPATRIA MILANO01:20:2011:50:51.2500:11:13
62218PACCHETTIANNAM1WOMAN TRIATHLON ITAL01:20:2611:50:57.1000:11:19
61719GATTILUDOVICA MARTINAYBA.S.D. TORINO TRIATH01:20:4811:51:19.4500:11:42
61920RICCOMIMARGHERITAJUCANOTRIATHLON01:21:0011:51:31.3500:11:53
62521KRAUSEJETTE ANDREAM1OXYGEN TRIATHLON01:21:0711:51:38.5500:12:01
61222BRIGADOISERENAS1CUS TRENTO CTT01:21:2011:51:51.2500:12:13
62823MORETTOCHIARAS1A301:21:2211:51:53.4500:12:16
62124MEROTTOSERENA MARIAS3A301:21:2211:51:53.9000:12:16
67325GIANNINICOSTANZAS1T'N'T SSD01:22:0111:52:32.7000:12:55
69326TONIATOGIORGIAS2Tesseramento Giornaliero01:23:1811:53:50.0000:14:12
62027ZANELLADANIELAM1DOLOMITICA NUOTO CTT01:23:2211:53:53.2000:14:15
66828LEIERKATAYBBudaorsi Triatlon Klub01:23:2511:53:56.2500:14:18
63829BONATTOSTEFANIAM2G.P. TRIATHLON01:24:0711:54:38.3000:15:00
62630CASTELLOGLORIAS1WOMAN TRIATHLON ITAL01:24:1811:54:50.0000:15:12
69931COVICHIARAS4Tesseramento Giornaliero01:24:3611:55:07.9000:15:30
70632MAZZELLAPAOLAM2Tesseramento Giornaliero01:25:0211:55:33.5500:15:56
63733RAVAROTTOFRANCESCAM1OXYGEN TRIATHLON01:25:2911:56:00.3000:16:22
63434MANFRINALESSANDRAS2A.S.D. RHODIGIUM TEA01:26:0211:56:33.4000:16:55
62435SALALAURAM3RASCHIANI TRI PAVESE01:26:3411:57:05.2000:17:27
62936SPINELLIDEBORAHS3SARONNO TRIATHLON01:26:4011:57:11.2500:17:33
69537TRECCANIVALENTINAS3Tesseramento Giornaliero01:27:0111:57:32.3500:17:54
65238ANDREOLILUCIAS4PROGETTO VISTA TRIAT01:27:2611:57:57.1000:18:19
69239NEGRIANNITAM3VIADANA TRIATHLON01:27:3311:58:04.6000:18:27
70840WEBERRENATEM2Lifepark Max e. V.01:27:4911:58:20.1000:18:42
63541MUZIOSILVIAM2RUNNERS SALO'01:28:0711:58:38.6000:19:01
63242CUSMAIFRANCESCAS4DDS01:28:0811:58:40.0000:19:02
63143ALTIERIMARIACARMELAM1FREEZONE01:28:1611:58:47.3500:19:09
70044GARAVAGLIAALICES4Tesseramento Giornaliero01:29:0611:59:37.4000:19:59
64345TONIAZZOELETTRAS3TRIBU'01:29:4712:00:18.5000:20:41
65046GARAMPELLISTEFANIAM3ASD CNM TRIATHLON01:29:5212:00:24.0500:20:46
68247MEROLAGIOVANNAM1PESCHIERA TRI01:30:5312:01:24.4000:21:46
64048GILIOLIDOROTEA VIOLAS1VELO SPORT CARPI01:31:1312:01:44.4500:22:07
65649CORDIOLICINZIAM2PESCHIERA TRI01:31:2912:02:01.0500:22:23
64550D'AGOSTINOSTEFANIAM2PROPATRIA MILANO01:31:4112:02:12.3500:22:34
65151LONATIROBERTAM3HAPPY RUNNER CLUB01:31:4112:02:13.0500:22:35
67452PEZZOLILAURAS1CUS BRESCIA01:31:4412:02:15.2000:22:37
65353AZZALIGIULIAS2S.S.D. SCHIANTARELLI01:31:4912:02:20.6500:22:43
65554IACUCCIDILETTAS3FANO+SPORT TRIATHLON01:32:2412:02:55.2000:23:17
63655BORTOLOTTIMONICAM2TREVISO TRI01:32:2812:02:59.2500:23:21
66056ZANFORLINROBERTAS3A.S.D. RHODIGIUM TEA01:32:4712:03:18.5000:23:41
63057PELIZZARIALESSANDRAM1FREEZONE01:32:5812:03:29.2500:23:51
67958PFITSCHERLISAS4KSV TRIATHLON01:33:0412:03:35.7500:23:58
65759TESOROROSSANAM2TRYLOGY01:33:0612:03:38.0500:24:00
67660CERCACIELISAS3IRON BEAT01:33:3112:04:02.5000:24:25
64961DOTTIRAFFAELLAM1PROPATRIA MILANO01:33:3712:04:08.5500:24:31
68962JURICLJUBICAM2PESCHIERA TRI01:34:0512:04:36.6500:24:59
68163SALVETTIKETTYM1PESCHIERA TRI01:34:1812:04:49.9000:25:12
70364CANIATOFRANCESCAM2Tesseramento Giornaliero01:34:2512:04:56.4500:25:19
70965PATRINIGIOVANNAM4TRIATHLON CREMONA ST01:35:1612:05:47.4000:26:09
70566BAZANDIANAM2Tesseramento Giornaliero01:35:2512:05:56.4500:26:19
66467TAMBANISARAS4TRI TEAM BRIANZA01:35:3212:06:04.0500:26:26
68868MORANDELLPETRAM2KSV TRIATHLON01:35:3912:06:10.1000:26:32
64669RAMBALDOSONIAM2PESCHIERA TRI01:36:4512:07:16.5000:27:39
65970MATTERAJUSTINE ELIZABETHM2DDS01:37:0312:07:35.0000:27:57
64771MARENZIMARIA LUISAS4PROPATRIA MILANO01:37:1212:07:43.8000:28:06
68372MATZNELLERMAGDALENAM2KSV TRIATHLON01:37:3512:08:06.1500:28:28
64273CORDIOLICRISITNAM1PESCHIERA TRI01:37:4412:08:15.9500:28:38
64474MENCARELLIANNITAM1FANO+SPORT TRIATHLON01:37:5112:08:22.6000:28:45
66275TONIOLOGIOVANNAM1CASTELFRANCO TRIATHL01:38:5112:09:22.2000:29:44
66376CAMPARIROSANGELAM2WOMAN TRIATHLON ITAL01:39:0612:09:37.3000:29:59
68077VALMASSOIFRANCESCAS4TRIATHLON 7C ASD01:39:3512:10:06.7000:30:29
69478GREINERLISA MARIAS2Tesseramento Giornaliero01:40:2212:10:54.0000:31:16
69679CUGNASCAMICHELAS4Tesseramento Giornaliero01:40:3512:11:06.6000:31:29
69780ZURMABEATRICES4Tesseramento Giornaliero01:40:4212:11:14.0500:31:36
68581STRAZZERIRENATAM2GRANBIKE TRIATHLON01:42:3212:13:03.8500:33:26
70482STOPPAGIORGIAM2Tesseramento Giornaliero01:43:3012:14:01.7000:34:24
66683TONIATOMARIALUISAM2CY LASER TRI SCHIO01:45:3512:16:06.8000:36:29
70184MENONMILENAS4Tesseramento Giornaliero01:47:1012:17:41.4500:38:04
67885RAZIOLAURAS4TEAM BIKE GUSSAGO AS01:50:1512:20:46.9500:41:09
69186MAYRVERENAM2KSV TRIATHLON01:53:2612:23:57.1000:44:19
70287DENTENEERELVIRAM1Tesseramento Giornaliero01:54:5612:25:27.1500:45:49
68688PIZZORAFFAELLAM2SPORT MANAGEMENT01:58:2112:28:52.8500:49:15
69889PERRAOTTAVIAS4Tesseramento Giornaliero02:00:4012:31:11.7000:51:34
FORNITORI UFFICIALI >>
ISTITUZIONI >>
MEDIA PARTNERS >>
CHARITY PARTNER >>